Wetterdaten: Freitag, 23.04.2021
Datum Zeit Temp. Aussen Temp. o. S. Temp +5cm Feuchte Auss Luftdruck Regen Sonnenschein Regendauer Solar Windben Empfang
23.04.2021 00:00 6,7 C 5,6 C 3,4 C 76 % 1027,7 hPa 0,0 l/m 0 min 0 min 0 W/m 19,3 km/h (3 Bft) 100,00 %
23.04.2021 00:05 6,6 C 5,6 C 3,4 C 76 % 1027,7 hPa 0,0 l/m 0 min 0 min 0 W/m 16,1 km/h (3 Bft) 100,00 %
23.04.2021 00:08 6,6 C 5,6 C 3,4 C 76 % 1027,7 hPa 0,0 l/m 0 min 0 min 0 W/m 12,9 km/h (3 Bft) 100,00 %
23.04.2021 00:10 6,5 C 5,6 C 3,4 C 76 % 1027,7 hPa 0,0 l/m 0 min 0 min 0 W/m 12,9 km/h (3 Bft) 99,12 %
23.04.2021 00:12 6,5 C 5,6 C 3,4 C 76 % 1027,7 hPa 0,0 l/m 0 min 0 min 0 W/m 6,4 km/h (2 Bft) 100,00 %
23.04.2021 00:14 6,5 C 5,6 C 3,4 C 76 % 1027,7 hPa 0,0 l/m 0 min 0 min 0 W/m 3,2 km/h (1 Bft) 100,00 %
23.04.2021 00:16 6,4 C 5,6 C 3,4 C 76 % 1027,7 hPa 0,0 l/m 0 min 0 min 0 W/m 6,4 km/h (2 Bft) 100,00 %
23.04.2021 00:18 6,4 C 5,6 C 3,4 C 77 % 1027,8 hPa 0,0 l/m 0 min 0 min 0 W/m 6,4 km/h (2 Bft) 100,00 %
23.04.2021 00:20 6,4 C 5,6 C 3,4 C 77 % 1027,7 hPa 0,0 l/m 0 min 0 min 0 W/m 6,4 km/h (2 Bft) 100,00 %
23.04.2021 00:22 6,4 C 5,6 C 3,4 C 77 % 1027,8 hPa 0,0 l/m 0 min 0 min 0 W/m 9,7 km/h (2 Bft) 100,00 %
23.04.2021 00:24 6,4 C 5,0 C 3,4 C 77 % 1027,7 hPa 0,0 l/m 0 min 0 min 0 W/m 6,4 km/h (2 Bft) 97,87 %
23.04.2021 00:26 6,3 C 5,6 C 3,4 C 77 % 1027,8 hPa 0,0 l/m 0 min 0 min 0 W/m 9,7 km/h (2 Bft) 97,83 %
23.04.2021 00:28 6,3 C 5,0 C 3,4 C 77 % 1027,7 hPa 0,0 l/m 0 min 0 min 0 W/m 6,4 km/h (2 Bft) 100,00 %
23.04.2021 00:30 6,3 C 5,0 C 2,8 C 77 % 1027,8 hPa 0,0 l/m 0 min 0 min 0 W/m 6,4 km/h (2 Bft) 100,00 %
23.04.2021 00:32 6,2 C 5,0 C 2,8 C 77 % 1027,8 hPa 0,0 l/m 0 min 0 min 0 W/m 12,9 km/h (3 Bft) 100,00 %
23.04.2021 00:34 6,2 C 5,0 C 2,8 C 77 % 1027,8 hPa 0,0 l/m 0 min 0 min 0 W/m 6,4 km/h (2 Bft) 97,87 %
23.04.2021 00:36 6,1 C 5,0 C 2,8 C 78 % 1027,8 hPa 0,0 l/m 0 min 0 min 0 W/m 12,9 km/h (3 Bft) 97,87 %
23.04.2021 00:38 6,1 C 5,0 C 2,8 C 78 % 1027,9 hPa 0,0 l/m 0 min 0 min 0 W/m 12,9 km/h (3 Bft) 97,83 %
23.04.2021 00:40 6,1 C 5,0 C 2,8 C 78 % 1027,9 hPa 0,0 l/m 0 min 0 min 0 W/m 6,4 km/h (2 Bft) 97,87 %
23.04.2021 00:42 6,0 C 5,0 C 2,8 C 78 % 1027,9 hPa 0,0 l/m 0 min 0 min 0 W/m 6,4 km/h (2 Bft) 95,74 %
23.04.2021 00:44 6,0 C 5,0 C 2,8 C 78 % 1027,9 hPa 0,0 l/m 0 min 0 min 0 W/m 3,2 km/h (1 Bft) 41,67 %
23.04.2021 00:46 6,0 C 5,0 C 2,8 C 78 % 1027,9 hPa 0,0 l/m 0 min 0 min 0 W/m 6,4 km/h (2 Bft) 97,87 %
23.04.2021 00:48 6,0 C 5,0 C 2,8 C 78 % 1027,9 hPa 0,0 l/m 0 min 0 min 0 W/m 12,9 km/h (3 Bft) 95,74 %
23.04.2021 00:50 6,0 C 5,0 C 2,8 C 78 % 1027,9 hPa 0,0 l/m 0 min 0 min 0 W/m 3,2 km/h (1 Bft) 95,65 %
23.04.2021 00:52 5,9 C 5,0 C 2,8 C 78 % 1028,0 hPa 0,0 l/m 0 min 0 min 0 W/m 6,4 km/h (2 Bft) 97,87 %
23.04.2021 00:54 5,9 C 5,0 C 2,8 C 79 % 1027,9 hPa 0,0 l/m 0 min 0 min 0 W/m 9,7 km/h (2 Bft) 97,87 %
23.04.2021 00:56 5,9 C 5,0 C 2,8 C 79 % 1028,0 hPa 0,0 l/m 0 min 0 min 0 W/m 9,7 km/h (2 Bft) 95,74 %
23.04.2021 00:58 5,9 C 5,0 C 2,8 C 79 % 1027,9 hPa 0,0 l/m 0 min 0 min 0 W/m 9,7 km/h (2 Bft) 95,74 %
23.04.2021 01:00 5,9 C 5,0 C 2,8 C 79 % 1028,0 hPa 0,0 l/m 0 min 0 min 0 W/m 6,4 km/h (2 Bft) 97,87 %
23.04.2021 01:02 5,8 C 5,0 C 2,8 C 79 % 1028,0 hPa 0,0 l/m 0 min 0 min 0 W/m 9,7 km/h (2 Bft) 95,65 %
23.04.2021 01:04 5,8 C 5,0 C 2,8 C 79 % 1028,0 hPa 0,0 l/m 0 min 0 min 0 W/m 9,7 km/h (2 Bft) 97,92 %
23.04.2021 01:06 5,8 C 4,4 C 2,8 C 79 % 1028,0 hPa 0,0 l/m 0 min 0 min 0 W/m 9,7 km/h (2 Bft) 97,87 %
23.04.2021 01:08 5,8 C 4,4 C 2,8 C 79 % 1028,0 hPa 0,0 l/m 0 min 0 min 0 W/m 9,7 km/h (2 Bft) 95,65 %
23.04.2021 01:10 5,7 C 4,4 C 2,3 C 79 % 1028,0 hPa 0,0 l/m 0 min 0 min 0 W/m 9,7 km/h (2 Bft) 97,87 %
23.04.2021 01:12 5,6 C 4,4 C 2,3 C 79 % 1028,0 hPa 0,0 l/m 0 min 0 min 0 W/m 9,7 km/h (2 Bft) 100,00 %
23.04.2021 01:14 5,6 C 4,4 C 2,3 C 79 % 1028,0 hPa 0,0 l/m 0 min 0 min 0 W/m 6,4 km/h (2 Bft) 97,87 %
23.04.2021 01:16 5,6 C 4,4 C 2,3 C 80 % 1028,1 hPa 0,0 l/m 0 min 0 min 0 W/m 9,7 km/h (2 Bft) 100,00 %
23.04.2021 01:18 5,6 C 4,4 C 2,3 C 80 % 1028,1 hPa 0,0 l/m 0 min 0 min 0 W/m 9,7 km/h (2 Bft) 100,00 %
23.04.2021 01:20 5,5 C 4,4 C 2,3 C 80 % 1028,0 hPa 0,0 l/m 0 min 0 min 0 W/m 6,4 km/h (2 Bft) 100,00 %
23.04.2021 01:22 5,5 C 4,4 C 2,3 C 80 % 1028,0 hPa 0,0 l/m 0 min 0 min 0 W/m 9,7 km/h (2 Bft) 100,00 %
23.04.2021 01:24 5,5 C 4,4 C 2,3 C 80 % 1028,0 hPa 0,0 l/m 0 min 0 min 0 W/m 9,7 km/h (2 Bft) 100,00 %
23.04.2021 01:26 5,5 C 4,4 C 2,3 C 80 % 1028,0 hPa 0,0 l/m 0 min 0 min 0 W/m 6,4 km/h (2 Bft) 100,00 %
23.04.2021 01:28 5,4 C 4,4 C 2,3 C 80 % 1028,0 hPa 0,0 l/m 0 min 0 min 0 W/m 6,4 km/h (2 Bft) 100,00 %
23.04.2021 01:30 5,4 C 4,4 C 2,3 C 80 % 1028,0 hPa 0,0 l/m 0 min 0 min 0 W/m 6,4 km/h (2 Bft) 100,00 %
23.04.2021 01:32 5,4 C 4,4 C 2,3 C 80 % 1028,0 hPa 0,0 l/m 0 min 0 min 0 W/m 3,2 km/h (1 Bft) 100,00 %
23.04.2021 01:34 5,3 C 4,4 C 2,3 C 80 % 1028,0 hPa 0,0 l/m 0 min 0 min 0 W/m 6,4 km/h (2 Bft) 100,00 %
23.04.2021 01:36 5,3 C 4,4 C 2,3 C 80 % 1028,0 hPa 0,0 l/m 0 min 0 min 0 W/m 3,2 km/h (1 Bft) 100,00 %
23.04.2021 01:38 5,3 C 4,4 C 2,3 C 80 % 1028,0 hPa 0,0 l/m 0 min 0 min 0 W/m 12,9 km/h (3 Bft) 100,00 %
23.04.2021 01:40 5,3 C 3,9 C 2,3 C 80 % 1028,0 hPa 0,0 l/m 0 min 0 min 0 W/m 0,0 km/h (0 Bft) 100,00 %
23.04.2021 01:42 5,2 C 3,9 C 2,3 C 81 % 1028,0 hPa 0,0 l/m 0 min 0 min 0 W/m 12,9 km/h (3 Bft) 100,00 %
23.04.2021 01:44 5,2 C 3,9 C 2,3 C 81 % 1028,0 hPa 0,0 l/m 0 min 0 min 0 W/m 6,4 km/h (2 Bft) 100,00 %
23.04.2021 01:46 5,2 C 4,4 C 2,3 C 81 % 1028,0 hPa 0,0 l/m 0 min 0 min 0 W/m 3,2 km/h (1 Bft) 100,00 %
23.04.2021 01:48 5,1 C 3,9 C 2,3 C 81 % 1028,0 hPa 0,0 l/m 0 min 0 min 0 W/m 6,4 km/h (2 Bft) 97,87 %
23.04.2021 01:50 5,1 C 3,9 C 2,3 C 81 % 1028,0 hPa 0,0 l/m 0 min 0 min 0 W/m 6,4 km/h (2 Bft) 97,87 %
23.04.2021 01:52 5,1 C 3,9 C 2,3 C 81 % 1028,0 hPa 0,0 l/m 0 min 0 min 0 W/m 0,0 km/h (0 Bft) 95,74 %
23.04.2021 01:54 5,1 C 3,9 C 2,3 C 81 % 1028,0 hPa 0,0 l/m 0 min 0 min 0 W/m 12,9 km/h (3 Bft) 97,87 %
23.04.2021 01:56 5,1 C 3,9 C 2,3 C 81 % 1028,0 hPa 0,0 l/m 0 min 0 min 0 W/m 3,2 km/h (1 Bft) 97,83 %
23.04.2021 01:58 5,0 C 3,9 C 1,7 C 81 % 1028,1 hPa 0,0 l/m 0 min 0 min 0 W/m 6,4 km/h (2 Bft) 100,00 %
23.04.2021 02:00 5,0 C 3,9 C 1,7 C 81 % 1028,0 hPa 0,0 l/m 0 min 0 min 0 W/m 6,4 km/h (2 Bft) 97,87 %
23.04.2021 02:02 5,0 C 3,9 C 1,7 C 81 % 1028,1 hPa 0,0 l/m 0 min 0 min 0 W/m 3,2 km/h (1 Bft) 93,62 %
23.04.2021 02:04 5,0 C 3,9 C 1,7 C 82 % 1028,0 hPa 0,0 l/m 0 min 0 min 0 W/m 3,2 km/h (1 Bft) 100,00 %
23.04.2021 02:06 5,0 C 3,9 C 1,7 C 82 % 1028,1 hPa 0,0 l/m 0 min 0 min 0 W/m 0,0 km/h (0 Bft) 100,00 %
23.04.2021 02:08 5,0 C 3,9 C 1,7 C 82 % 1028,1 hPa 0,0 l/m 0 min 0 min 0 W/m 0,0 km/h (0 Bft) 95,65 %
23.04.2021 02:10 4,9 C 3,9 C 1,7 C 82 % 1028,1 hPa 0,0 l/m 0 min 0 min 0 W/m 0,0 km/h (0 Bft) 97,87 %
23.04.2021 02:12 4,9 C 3,9 C 1,7 C 82 % 1028,1 hPa 0,0 l/m 0 min 0 min 0 W/m 0,0 km/h (0 Bft) 97,87 %
23.04.2021 02:14 4,9 C 3,9 C 1,7 C 82 % 1028,1 hPa 0,0 l/m 0 min 0 min 0 W/m 0,0 km/h (0 Bft) 95,74 %
23.04.2021 02:16 4,9 C 3,9 C 1,7 C 82 % 1028,1 hPa 0,0 l/m 0 min 0 min 0 W/m 3,2 km/h (1 Bft) 93,62 %
23.04.2021 02:18 4,8 C 3,3 C 1,7 C 82 % 1028,1 hPa 0,0 l/m 0 min 0 min 0 W/m 3,2 km/h (1 Bft) 95,74 %
23.04.2021 02:20 4,8 C 3,3 C 1,7 C 82 % 1028,1 hPa 0,0 l/m 0 min 0 min 0 W/m 0,0 km/h (0 Bft) 95,65 %
23.04.2021 02:22 4,8 C 3,3 C 1,7 C 82 % 1028,1 hPa 0,0 l/m 0 min 0 min 0 W/m 3,2 km/h (1 Bft) 95,74 %
23.04.2021 02:24 4,7 C 3,3 C 1,7 C 82 % 1028,1 hPa 0,0 l/m 0 min 0 min 0 W/m 3,2 km/h (1 Bft) 93,62 %
23.04.2021 02:26 4,6 C 3,3 C 1,7 C 82 % 1028,2 hPa 0,0 l/m 0 min 0 min 0 W/m 3,2 km/h (1 Bft) 93,62 %
23.04.2021 02:28 4,6 C 3,3 C 1,7 C 82 % 1028,2 hPa 0,0 l/m 0 min 0 min 0 W/m 0,0 km/h (0 Bft) 95,74 %
23.04.2021 02:30 4,6 C 3,3 C 1,1 C 83 % 1028,2 hPa 0,0 l/m 0 min 0 min 0 W/m 0,0 km/h (0 Bft) 93,62 %
23.04.2021 02:32 4,6 C 3,3 C 1,1 C 82 % 1028,2 hPa 0,0 l/m 0 min 0 min 0 W/m 0,0 km/h (0 Bft) 93,48 %
23.04.2021 02:34 4,5 C 3,3 C 1,1 C 83 % 1028,2 hPa 0,0 l/m 0 min 0 min 0 W/m 0,0 km/h (0 Bft) 95,74 %
23.04.2021 02:36 4,5 C 3,3 C 1,1 C 83 % 1028,2 hPa 0,0 l/m 0 min 0 min 0 W/m 0,0 km/h (0 Bft) 93,62 %
23.04.2021 02:38 4,5 C 3,3 C 1,1 C 83 % 1028,2 hPa 0,0 l/m 0 min 0 min 0 W/m 0,0 km/h (0 Bft) 95,74 %
23.04.2021 02:40 4,4 C 3,3 C 1,1 C 83 % 1028,2 hPa 0,0 l/m 0 min 0 min 0 W/m 0,0 km/h (0 Bft) 93,62 %
23.04.2021 02:42 4,4 C 3,3 C 1,1 C 83 % 1028,2 hPa 0,0 l/m 0 min 0 min 0 W/m 3,2 km/h (1 Bft) 91,30 %
23.04.2021 02:44 4,4 C 3,3 C 1,1 C 83 % 1028,2 hPa 0,0 l/m 0 min 0 min 0 W/m 0,0 km/h (0 Bft) 91,49 %
23.04.2021 02:46 4,3 C 3,3 C 1,1 C 83 % 1028,1 hPa 0,0 l/m 0 min 0 min 0 W/m 0,0 km/h (0 Bft) 93,62 %
23.04.2021 02:48 4,3 C 2,8 C 1,1 C 83 % 1028,1 hPa 0,0 l/m 0 min 0 min 0 W/m 3,2 km/h (1 Bft) 91,49 %
23.04.2021 02:50 4,2 C 2,8 C 1,1 C 83 % 1028,1 hPa 0,0 l/m 0 min 0 min 0 W/m 3,2 km/h (1 Bft) 93,62 %
23.04.2021 02:52 4,2 C 2,8 C 1,1 C 84 % 1028,1 hPa 0,0 l/m 0 min 0 min 0 W/m 0,0 km/h (0 Bft) 95,74 %
23.04.2021 02:54 4,1 C 2,8 C 0,6 C 84 % 1028,1 hPa 0,0 l/m 0 min 0 min 0 W/m 3,2 km/h (1 Bft) 93,48 %
23.04.2021 02:56 4,1 C 2,8 C 0,6 C 84 % 1028,1 hPa 0,0 l/m 0 min 0 min 0 W/m 3,2 km/h (1 Bft) 93,62 %
23.04.2021 02:58 4,0 C 2,8 C 0,6 C 84 % 1028,1 hPa 0,0 l/m 0 min 0 min 0 W/m 3,2 km/h (1 Bft) 93,62 %
23.04.2021 03:00 3,9 C 2,8 C 0,6 C 84 % 1028,1 hPa 0,0 l/m 0 min 0 min 0 W/m 3,2 km/h (1 Bft) 93,62 %
23.04.2021 03:02 3,9 C 2,8 C 0,6 C 84 % 1028,1 hPa 0,0 l/m 0 min 0 min 0 W/m 3,2 km/h (1 Bft) 91,49 %
23.04.2021 03:04 3,8 C 2,8 C 0,6 C 84 % 1028,1 hPa 0,0 l/m 0 min 0 min 0 W/m 3,2 km/h (1 Bft) 93,62 %
23.04.2021 03:06 3,8 C 2,8 C 0,6 C 84 % 1028,1 hPa 0,0 l/m 0 min 0 min 0 W/m 0,0 km/h (0 Bft) 93,48 %
23.04.2021 03:08 3,8 C 2,8 C 0,6 C 85 % 1028,2 hPa 0,0 l/m 0 min 0 min 0 W/m 3,2 km/h (1 Bft) 95,74 %
23.04.2021 03:10 3,7 C 2,8 C 0,6 C 85 % 1028,2 hPa 0,0 l/m 0 min 0 min 0 W/m 0,0 km/h (0 Bft) 95,74 %
23.04.2021 03:12 3,7 C 2,8 C 0,6 C 85 % 1028,1 hPa 0,0 l/m 0 min 0 min 0 W/m 0,0 km/h (0 Bft) 93,62 %
23.04.2021 03:14 3,6 C 2,8 C 0,6 C 85 % 1028,1 hPa 0,0 l/m 0 min 0 min 0 W/m 0,0 km/h (0 Bft) 95,74 %
23.04.2021 03:16 3,6 C 2,8 C 0,6 C 85 % 1028,2 hPa 0,0 l/m 0 min 0 min 0 W/m 3,2 km/h (1 Bft) 95,74 %
23.04.2021 03:18 3,5 C 2,8 C 0,6 C 85 % 1028,2 hPa 0,0 l/m 0 min 0 min 0 W/m 3,2 km/h (1 Bft) 93,48 %
23.04.2021 03:20 3,5 C 2,8 C 0,6 C 86 % 1028,1 hPa 0,0 l/m 0 min 0 min 0 W/m 0,0 km/h (0 Bft) 97,87 %
23.04.2021 03:22 3,5 C 2,2 C 0,6 C 86 % 1028,2 hPa 0,0 l/m 0 min 0 min 0 W/m 3,2 km/h (1 Bft) 93,62 %
23.04.2021 03:24 3,5 C 2,2 C 0,6 C 86 % 1028,2 hPa 0,0 l/m 0 min 0 min 0 W/m 0,0 km/h (0 Bft) 93,62 %
23.04.2021 03:26 3,5 C 2,2 C 0,6 C 86 % 1028,2 hPa 0,0 l/m 0 min 0 min 0 W/m 0,0 km/h (0 Bft) 93,62 %
23.04.2021 03:28 3,5 C 2,2 C 0,6 C 86 % 1028,2 hPa 0,0 l/m 0 min 0 min 0 W/m 3,2 km/h (1 Bft) 95,74 %
23.04.2021 03:30 3,4 C 2,2 C 0,6 C 86 % 1028,2 hPa 0,0 l/m 0 min 0 min 0 W/m 0,0 km/h (0 Bft) 93,48 %
23.04.2021 03:32 3,4 C 2,2 C 0,6 C 86 % 1028,2 hPa 0,0 l/m 0 min 0 min 0 W/m 0,0 km/h (0 Bft) 97,87 %
23.04.2021 03:34 3,4 C 2,2 C 0,6 C 86 % 1028,2 hPa 0,0 l/m 0 min 0 min 0 W/m 3,2 km/h (1 Bft) 54,55 %
23.04.2021 03:36 3,4 C 2,2 C 0,6 C 86 % 1028,2 hPa 0,0 l/m 0 min 0 min 0 W/m 3,2 km/h (1 Bft) 97,62 %
23.04.2021 03:38 3,3 C 2,2 C 0,6 C 86 % 1028,3 hPa 0,0 l/m 0 min 0 min 0 W/m 3,2 km/h (1 Bft) 95,74 %
23.04.2021 03:40 3,3 C 2,2 C 0,6 C 86 % 1028,2 hPa 0,0 l/m 0 min 0 min 0 W/m 0,0 km/h (0 Bft) 100,00 %
23.04.2021 03:42 3,3 C 2,2 C 0,6 C 86 % 1028,3 hPa 0,0 l/m 0 min 0 min 0 W/m 0,0 km/h (0 Bft) 100,00 %
23.04.2021 03:44 3,3 C 2,2 C 0,0 C 87 % 1028,3 hPa 0,0 l/m 0 min 0 min 0 W/m 0,0 km/h (0 Bft) 100,00 %
23.04.2021 03:46 3,3 C 2,2 C 0,0 C 86 % 1028,3 hPa 0,0 l/m 0 min 0 min 0 W/m 0,0 km/h (0 Bft) 97,87 %
23.04.2021 03:48 3,2 C 2,2 C 0,0 C 86 % 1028,3 hPa 0,0 l/m 0 min 0 min 0 W/m 0,0 km/h (0 Bft) 97,87 %
23.04.2021 03:50 3,2 C 2,2 C 0,0 C 87 % 1028,3 hPa 0,0 l/m 0 min 0 min 0 W/m 0,0 km/h (0 Bft) 97,87 %
23.04.2021 03:52 3,1 C 2,2 C 0,0 C 87 % 1028,3 hPa 0,0 l/m 0 min 0 min 0 W/m 0,0 km/h (0 Bft) 97,83 %
23.04.2021 03:54 3,1 C 2,2 C 0,0 C 87 % 1028,3 hPa 0,0 l/m 0 min 0 min 0 W/m 0,0 km/h (0 Bft) 97,87 %
23.04.2021 03:56 3,1 C 2,2 C 0,0 C 87 % 1028,3 hPa 0,0 l/m 0 min 0 min 0 W/m 0,0 km/h (0 Bft) 93,62 %
23.04.2021 03:58 3,1 C 2,2 C 0,0 C 87 % 1028,3 hPa 0,0 l/m 0 min 0 min 0 W/m 3,2 km/h (1 Bft) 97,87 %
23.04.2021 04:00 3,0 C 2,2 C 0,0 C 87 % 1028,3 hPa 0,0 l/m 0 min 0 min 0 W/m 0,0 km/h (0 Bft) 97,87 %
23.04.2021 04:02 3,0 C 2,2 C 0,0 C 87 % 1028,3 hPa 0,0 l/m 0 min 0 min 0 W/m 0,0 km/h (0 Bft) 100,00 %
23.04.2021 04:04 3,0 C 2,2 C 0,0 C 87 % 1028,3 hPa 0,0 l/m 0 min 0 min 0 W/m 0,0 km/h (0 Bft) 97,83 %
23.04.2021 04:06 3,0 C 2,2 C 0,0 C 87 % 1028,3 hPa 0,0 l/m 0 min 0 min 0 W/m 3,2 km/h (1 Bft) 97,87 %
23.04.2021 04:08 3,0 C 2,2 C 0,0 C 87 % 1028,3 hPa 0,0 l/m 0 min 0 min 0 W/m 3,2 km/h (1 Bft) 97,87 %
23.04.2021 04:10 3,0 C 2,2 C 0,0 C 87 % 1028,3 hPa 0,0 l/m 0 min 0 min 0 W/m 3,2 km/h (1 Bft) 97,87 %
23.04.2021 04:12 3,0 C 2,2 C 0,0 C 87 % 1028,3 hPa 0,0 l/m 0 min 0 min 0 W/m 3,2 km/h (1 Bft) 96,00 %
23.04.2021 04:14 3,0 C 2,2 C 0,0 C 87 % 1028,3 hPa 0,0 l/m 0 min 0 min 0 W/m 6,4 km/h (2 Bft) 95,74 %
23.04.2021 04:16 2,9 C 2,2 C 0,0 C 87 % 1028,3 hPa 0,0 l/m 0 min 0 min 0 W/m 3,2 km/h (1 Bft) 95,65 %
23.04.2021 04:18 2,9 C 2,2 C 0,0 C 87 % 1028,3 hPa 0,0 l/m 0 min 0 min 0 W/m 3,2 km/h (1 Bft) 97,87 %
23.04.2021 04:20 2,9 C 2,2 C 0,0 C 87 % 1028,3 hPa 0,0 l/m 0 min 0 min 0 W/m 3,2 km/h (1 Bft) 97,87 %
23.04.2021 04:22 2,9 C 2,2 C 0,0 C 87 % 1028,3 hPa 0,0 l/m 0 min 0 min 0 W/m 0,0 km/h (0 Bft) 95,74 %
23.04.2021 04:24 2,9 C 2,2 C 0,0 C 88 % 1028,3 hPa 0,0 l/m 0 min 0 min 0 W/m 0,0 km/h (0 Bft) 93,62 %
23.04.2021 04:26 2,9 C 1,7 C 0,0 C 88 % 1028,3 hPa 0,0 l/m 0 min 0 min 0 W/m 0,0 km/h (0 Bft) 95,74 %
23.04.2021 04:28 2,9 C 1,7 C 0,0 C 88 % 1028,4 hPa 0,0 l/m 0 min 0 min 0 W/m 0,0 km/h (0 Bft) 97,83 %
23.04.2021 04:30 2,8 C 1,7 C 0,0 C 88 % 1028,4 hPa 0,0 l/m 0 min 0 min 0 W/m 0,0 km/h (0 Bft) 95,74 %
23.04.2021 04:32 2,8 C 1,7 C 0,0 C 88 % 1028,3 hPa 0,0 l/m 0 min 0 min 0 W/m 0,0 km/h (0 Bft) 97,87 %
23.04.2021 04:34 2,8 C 1,7 C 0,0 C 88 % 1028,4 hPa 0,0 l/m 0 min 0 min 0 W/m 0,0 km/h (0 Bft) 97,87 %
23.04.2021 04:36 2,8 C 1,7 C 0,0 C 88 % 1028,4 hPa 0,0 l/m 0 min 0 min 0 W/m 0,0 km/h (0 Bft) 95,74 %
23.04.2021 04:38 2,8 C 1,7 C 0,0 C 88 % 1028,4 hPa 0,0 l/m 0 min 0 min 0 W/m 0,0 km/h (0 Bft) 97,83 %
23.04.2021 04:40 2,7 C 1,7 C 0,0 C 87 % 1028,4 hPa 0,0 l/m 0 min 0 min 0 W/m 0,0 km/h (0 Bft) 97,87 %
23.04.2021 04:42 2,6 C 1,7 C 0,0 C 87 % 1028,4 hPa 0,0 l/m 0 min 0 min 0 W/m 0,0 km/h (0 Bft) 97,87 %
23.04.2021 04:44 2,6 C 1,7 C 0,0 C 87 % 1028,5 hPa 0,0 l/m 0 min 0 min 0 W/m 3,2 km/h (1 Bft) 95,74 %
23.04.2021 04:46 2,6 C 1,7 C 0,0 C 87 % 1028,5 hPa 0,0 l/m 0 min 0 min 0 W/m 0,0 km/h (0 Bft) 95,74 %
23.04.2021 04:48 2,6 C 1,7 C 0,0 C 87 % 1028,5 hPa 0,0 l/m 0 min 0 min 0 W/m 0,0 km/h (0 Bft) 97,87 %
23.04.2021 04:50 2,6 C 1,7 C 0,0 C 87 % 1028,5 hPa 0,0 l/m 0 min 0 min 0 W/m 0,0 km/h (0 Bft) 100,00 %
23.04.2021 04:52 2,6 C 1,7 C 0,0 C 88 % 1028,6 hPa 0,0 l/m 0 min 0 min 0 W/m 0,0 km/h (0 Bft) 100,00 %
23.04.2021 04:54 2,6 C 1,1 C 0,0 C 88 % 1028,6 hPa 0,0 l/m 0 min 0 min 0 W/m 0,0 km/h (0 Bft) 100,00 %
23.04.2021 04:56 2,5 C 1,1 C -0,5 C 88 % 1028,6 hPa 0,0 l/m 0 min 0 min 0 W/m 3,2 km/h (1 Bft) 97,87 %
23.04.2021 04:58 2,5 C 1,1 C 0,0 C 88 % 1028,6 hPa 0,0 l/m 0 min 0 min 0 W/m 3,2 km/h (1 Bft) 100,00 %
23.04.2021 05:00 2,5 C 1,1 C -0,5 C 88 % 1028,6 hPa 0,0 l/m 0 min 0 min 0 W/m 3,2 km/h (1 Bft) 100,00 %
23.04.2021 05:02 2,5 C 1,1 C 0,0 C 88 % 1028,6 hPa 0,0 l/m 0 min 0 min 0 W/m 3,2 km/h (1 Bft) 100,00 %
23.04.2021 05:04 2,5 C 1,1 C 0,0 C 88 % 1028,6 hPa 0,0 l/m 0 min 0 min 0 W/m 0,0 km/h (0 Bft) 97,87 %
23.04.2021 05:06 2,5 C 1,1 C 0,0 C 88 % 1028,6 hPa 0,0 l/m 0 min 0 min 0 W/m 0,0 km/h (0 Bft) 93,62 %
23.04.2021 05:08 2,4 C 1,1 C 0,0 C 88 % 1028,6 hPa 0,0 l/m 0 min 0 min 0 W/m 0,0 km/h (0 Bft) 97,87 %
23.04.2021 05:10 2,4 C 1,1 C 0,0 C 88 % 1028,6 hPa 0,0 l/m 0 min 0 min 0 W/m 0,0 km/h (0 Bft) 100,00 %
23.04.2021 05:12 2,4 C 1,1 C -0,5 C 88 % 1028,6 hPa 0,0 l/m 0 min 0 min 0 W/m 0,0 km/h (0 Bft) 100,00 %
23.04.2021 05:14 2,4 C 1,1 C -0,5 C 88 % 1028,7 hPa 0,0 l/m 0 min 0 min 0 W/m 0,0 km/h (0 Bft) 97,87 %
23.04.2021 05:16 2,4 C 1,1 C -0,5 C 89 % 1028,7 hPa 0,0 l/m 0 min 0 min 0 W/m 0,0 km/h (0 Bft) 97,83 %
23.04.2021 05:18 2,4 C 1,1 C -0,5 C 89 % 1028,7 hPa 0,0 l/m 0 min 0 min 0 W/m 0,0 km/h (0 Bft) 97,87 %
23.04.2021 05:20 2,3 C 1,1 C -0,5 C 88 % 1028,8 hPa 0,0 l/m 0 min 0 min 0 W/m 0,0 km/h (0 Bft) 100,00 %
23.04.2021 05:22 2,3 C 1,1 C -0,5 C 89 % 1028,8 hPa 0,0 l/m 0 min 0 min 0 W/m 0,0 km/h (0 Bft) 100,00 %
23.04.2021 05:24 2,3 C 1,1 C -0,5 C 89 % 1028,8 hPa 0,0 l/m 0 min 0 min 0 W/m 0,0 km/h (0 Bft) 97,87 %
23.04.2021 05:26 2,3 C 1,1 C -0,5 C 89 % 1028,8 hPa 0,0 l/m 0 min 0 min 0 W/m 0,0 km/h (0 Bft) 100,00 %
23.04.2021 05:28 2,3 C 1,1 C -0,5 C 89 % 1028,9 hPa 0,0 l/m 0 min 0 min 0 W/m 0,0 km/h (0 Bft) 100,00 %
23.04.2021 05:30 2,3 C 1,1 C -0,5 C 89 % 1028,8 hPa 0,0 l/m 0 min 0 min 0 W/m 0,0 km/h (0 Bft) 100,00 %
23.04.2021 05:32 2,2 C 1,1 C -0,5 C 89 % 1028,8 hPa 0,0 l/m 0 min 0 min 0 W/m 0,0 km/h (0 Bft) 100,00 %
23.04.2021 05:34 2,2 C 1,1 C -0,5 C 89 % 1028,9 hPa 0,0 l/m 0 min 0 min 0 W/m 0,0 km/h (0 Bft) 100,00 %
23.04.2021 05:36 2,2 C 1,1 C -0,5 C 89 % 1028,9 hPa 0,0 l/m 0 min 0 min 0 W/m 0,0 km/h (0 Bft) 100,00 %
23.04.2021 05:38 2,1 C 1,1 C -0,5 C 89 % 1028,9 hPa 0,0 l/m 0 min 0 min 0 W/m 0,0 km/h (0 Bft) 97,83 %
23.04.2021 05:40 2,1 C 1,1 C -0,5 C 89 % 1028,9 hPa 0,0 l/m 0 min 0 min 0 W/m 0,0 km/h (0 Bft) 100,00 %
23.04.2021 05:42 2,1 C 1,1 C -0,5 C 89 % 1028,9 hPa 0,0 l/m 0 min 0 min 0 W/m 0,0 km/h (0 Bft) 100,00 %
23.04.2021 05:44 2,1 C 0,6 C -0,5 C 89 % 1028,9 hPa 0,0 l/m 0 min 0 min 0 W/m 0,0 km/h (0 Bft) 100,00 %
23.04.2021 05:46 2,1 C 0,6 C -0,5 C 89 % 1028,9 hPa 0,0 l/m 0 min 0 min 0 W/m 0,0 km/h (0 Bft) 100,00 %
23.04.2021 05:48 2,1 C 0,6 C -0,5 C 89 % 1028,9 hPa 0,0 l/m 0 min 0 min 0 W/m 0,0 km/h (0 Bft) 100,00 %
23.04.2021 05:50 2,0 C 0,6 C -0,5 C 89 % 1029,0 hPa 0,0 l/m 0 min 0 min 0 W/m 0,0 km/h (0 Bft) 100,00 %
23.04.2021 05:52 2,0 C 0,6 C -0,5 C 89 % 1029,0 hPa 0,0 l/m 0 min 0 min 0 W/m 0,0 km/h (0 Bft) 100,00 %
23.04.2021 05:54 2,0 C 0,6 C -0,5 C 89 % 1029,0 hPa 0,0 l/m 0 min 0 min 0 W/m 0,0 km/h (0 Bft) 95,74 %
23.04.2021 05:56 2,0 C 0,6 C -0,5 C 89 % 1029,0 hPa 0,0 l/m 0 min 0 min 0 W/m 0,0 km/h (0 Bft) 100,00 %
23.04.2021 05:58 1,9 C 0,6 C -0,5 C 90 % 1029,0 hPa 0,0 l/m 0 min 0 min 0 W/m 0,0 km/h (0 Bft) 97,87 %
23.04.2021 06:00 1,9 C 0,6 C -0,5 C 90 % 1029,0 hPa 0,0 l/m 0 min 0 min 0 W/m 0,0 km/h (0 Bft) 100,00 %
23.04.2021 06:02 1,9 C 0,6 C -0,5 C 90 % 1029,0 hPa 0,0 l/m 0 min 0 min 0 W/m 0,0 km/h (0 Bft) 97,83 %
23.04.2021 06:04 1,9 C 0,6 C -0,5 C 90 % 1029,0 hPa 0,0 l/m 0 min 0 min 0 W/m 0,0 km/h (0 Bft) 97,87 %
23.04.2021 06:06 1,9 C 0,6 C -0,5 C 90 % 1029,0 hPa 0,0 l/m 0 min 0 min 0 W/m 0,0 km/h (0 Bft) 97,87 %
23.04.2021 06:08 1,8 C 0,6 C -0,5 C 90 % 1029,0 hPa 0,0 l/m 0 min 0 min 0 W/m 0,0 km/h (0 Bft) 97,92 %
23.04.2021 06:10 1,8 C 0,6 C -1,1 C 90 % 1029,0 hPa 0,0 l/m 0 min 0 min 0 W/m 0,0 km/h (0 Bft) 97,87 %
23.04.2021 06:12 1,8 C 0,6 C -1,1 C 90 % 1029,0 hPa 0,0 l/m 0 min 0 min 0 W/m 0,0 km/h (0 Bft) 97,87 %
23.04.2021 06:14 1,8 C 0,6 C -1,1 C 90 % 1029,0 hPa 0,0 l/m 0 min 0 min 0 W/m 0,0 km/h (0 Bft) 97,83 %
23.04.2021 06:16 1,8 C 0,6 C -1,1 C 90 % 1029,1 hPa 0,0 l/m 0 min 0 min 0 W/m 0,0 km/h (0 Bft) 97,87 %
23.04.2021 06:18 1,7 C 0,6 C -1,1 C 90 % 1029,1 hPa 0,0 l/m 0 min 0 min 0 W/m 0,0 km/h (0 Bft) 95,74 %
23.04.2021 06:20 1,7 C 0,6 C -1,1 C 90 % 1029,1 hPa 0,0 l/m 0 min 0 min 0 W/m 0,0 km/h (0 Bft) 97,87 %
23.04.2021 06:22 1,7 C 0,6 C -1,1 C 90 % 1029,2 hPa 0,0 l/m 0 min 0 min 0 W/m 0,0 km/h (0 Bft) 97,87 %
23.04.2021 06:24 1,6 C 0,6 C -1,1 C 90 % 1029,2 hPa 0,0 l/m 0 min 0 min 2 W/m 0,0 km/h (0 Bft) 95,74 %
23.04.2021 06:26 1,6 C 0,6 C -1,1 C 90 % 1029,2 hPa 0,0 l/m 0 min 0 min 5 W/m 0,0 km/h (0 Bft) 97,83 %
23.04.2021 06:28 1,6 C 0,6 C -1,1 C 90 % 1029,2 hPa 0,0 l/m 0 min 0 min 6 W/m 0,0 km/h (0 Bft) 95,74 %
23.04.2021 06:30 1,6 C 0,6 C -1,1 C 90 % 1029,3 hPa 0,0 l/m 0 min 0 min 7 W/m 0,0 km/h (0 Bft) 100,00 %
23.04.2021 06:32 1,5 C 0,6 C -1,1 C 90 % 1029,3 hPa 0,0 l/m 0 min 0 min 7 W/m 0,0 km/h (0 Bft) 100,00 %
23.04.2021 06:34 1,5 C 0,6 C -1,1 C 90 % 1029,3 hPa 0,0 l/m 0 min 0 min 9 W/m 0,0 km/h (0 Bft) 97,87 %
23.04.2021 06:36 1,5 C 0,6 C -1,1 C 90 % 1029,3 hPa 0,0 l/m 0 min 0 min 9 W/m 0,0 km/h (0 Bft) 23,08 %
23.04.2021 06:38 1,5 C 0,6 C -1,1 C 90 % 1029,4 hPa 0,0 l/m 0 min 0 min 10 W/m 0,0 km/h (0 Bft) 100,00 %
23.04.2021 06:40 1,4 C 0,6 C -1,1 C 90 % 1029,4 hPa 0,0 l/m 0 min 0 min 11 W/m 0,0 km/h (0 Bft) 100,00 %
23.04.2021 06:42 1,4 C 0,6 C -1,1 C 90 % 1029,3 hPa 0,0 l/m 0 min 0 min 12 W/m 0,0 km/h (0 Bft) 100,00 %
23.04.2021 06:44 1,4 C 0,6 C -1,1 C 90 % 1029,3 hPa 0,0 l/m 0 min 0 min 12 W/m 0,0 km/h (0 Bft) 100,00 %
23.04.2021 06:46 1,4 C 0,6 C -1,1 C 90 % 1029,4 hPa 0,0 l/m 0 min 0 min 14 W/m 0,0 km/h (0 Bft) 100,00 %
23.04.2021 06:48 1,3 C 0,6 C -1,1 C 90 % 1029,4 hPa 0,0 l/m 0 min 0 min 14 W/m 0,0 km/h (0 Bft) 100,00 %
23.04.2021 06:50 1,3 C 0,6 C -1,1 C 90 % 1029,4 hPa 0,0 l/m 0 min 0 min 16 W/m 0,0 km/h (0 Bft) 100,00 %
23.04.2021 06:52 1,3 C 0,6 C -1,1 C 90 % 1029,4 hPa 0,0 l/m 0 min 0 min 16 W/m 0,0 km/h (0 Bft) 97,87 %
23.04.2021 06:54 1,3 C 0,6 C -1,1 C 90 % 1029,4 hPa 0,0 l/m 0 min 0 min 18 W/m 0,0 km/h (0 Bft) 97,87 %
23.04.2021 06:56 1,3 C 0,6 C -1,1 C 90 % 1029,4 hPa 0,0 l/m 0 min 0 min 18 W/m 0,0 km/h (0 Bft) 100,00 %
23.04.2021 06:58 1,3 C 0,6 C -1,1 C 90 % 1029,5 hPa 0,0 l/m 0 min 0 min 19 W/m 0,0 km/h (0 Bft) 100,00 %
23.04.2021 07:00 1,3 C 0,6 C -1,1 C 90 % 1029,5 hPa 0,0 l/m 0 min 0 min 19 W/m 0,0 km/h (0 Bft) 100,00 %
23.04.2021 07:02 1,3 C 0,6 C -1,1 C 90 % 1029,5 hPa 0,0 l/m 0 min 0 min 19 W/m 0,0 km/h (0 Bft) 97,87 %
23.04.2021 07:04 1,3 C 0,6 C -1,1 C 90 % 1029,6 hPa 0,0 l/m 0 min 0 min 21 W/m 0,0 km/h (0 Bft) 97,87 %
23.04.2021 07:06 1,4 C 0,6 C -1,1 C 91 % 1029,5 hPa 0,0 l/m 0 min 0 min 21 W/m 0,0 km/h (0 Bft) 95,74 %
23.04.2021 07:08 1,4 C 1,1 C -0,5 C 91 % 1029,6 hPa 0,0 l/m 0 min 0 min 22 W/m 0,0 km/h (0 Bft) 95,74 %
23.04.2021 07:10 1,4 C 1,1 C -0,5 C 91 % 1029,6 hPa 0,0 l/m 0 min 0 min 23 W/m 0,0 km/h (0 Bft) 97,87 %
23.04.2021 07:12 1,4 C 1,1 C -0,5 C 91 % 1029,6 hPa 0,0 l/m 0 min 0 min 24 W/m 0,0 km/h (0 Bft) 91,30 %
23.04.2021 07:14 1,4 C 1,1 C -0,5 C 91 % 1029,6 hPa 0,0 l/m 0 min 0 min 25 W/m 0,0 km/h (0 Bft) 95,74 %
23.04.2021 07:16 1,4 C 1,1 C -0,5 C 91 % 1029,6 hPa 0,0 l/m 0 min 0 min 25 W/m 0,0 km/h (0 Bft) 97,87 %
23.04.2021 07:18 1,4 C 1,1 C -0,5 C 91 % 1029,6 hPa 0,0 l/m 0 min 0 min 26 W/m 0,0 km/h (0 Bft) 97,87 %
23.04.2021 07:20 1,4 C 1,1 C -0,5 C 91 % 1029,7 hPa 0,0 l/m 0 min 0 min 26 W/m 0,0 km/h (0 Bft) 95,74 %
23.04.2021 07:22 1,4 C 1,1 C -0,5 C 91 % 1029,8 hPa 0,0 l/m 0 min 0 min 26 W/m 0,0 km/h (0 Bft) 97,87 %
23.04.2021 07:24 1,4 C 1,1 C -0,5 C 91 % 1029,7 hPa 0,0 l/m 0 min 0 min 26 W/m 0,0 km/h (0 Bft) 95,65 %
23.04.2021 07:26 1,4 C 1,1 C -0,5 C 91 % 1029,8 hPa 0,0 l/m 0 min 0 min 27 W/m 0,0 km/h (0 Bft) 97,87 %
23.04.2021 07:28 1,4 C 1,1 C -0,5 C 91 % 1029,8 hPa 0,0 l/m 0 min 0 min 28 W/m 3,2 km/h (1 Bft) 97,87 %
23.04.2021 07:30 1,4 C 1,1 C -0,5 C 91 % 1029,8 hPa 0,0 l/m 0 min 0 min 28 W/m 0,0 km/h (0 Bft) 95,74 %
23.04.2021 07:32 1,4 C 1,1 C -0,5 C 92 % 1029,8 hPa 0,0 l/m 0 min 0 min 29 W/m 0,0 km/h (0 Bft) 95,74 %
23.04.2021 07:34 1,5 C 1,7 C -0,5 C 92 % 1029,8 hPa 0,0 l/m 0 min 0 min 30 W/m 0,0 km/h (0 Bft) 95,74 %
23.04.2021 07:36 1,5 C 1,7 C -0,5 C 92 % 1029,8 hPa 0,0 l/m 0 min 0 min 30 W/m 0,0 km/h (0 Bft) 95,65 %
23.04.2021 07:38 1,5 C 1,7 C 0,0 C 92 % 1029,8 hPa 0,0 l/m 0 min 0 min 32 W/m 0,0 km/h (0 Bft) 95,74 %
23.04.2021 07:40 1,5 C 1,7 C 0,0 C 92 % 1029,8 hPa 0,0 l/m 0 min 0 min 32 W/m 0,0 km/h (0 Bft) 97,87 %
23.04.2021 07:42 1,5 C 1,7 C 0,0 C 92 % 1029,8 hPa 0,0 l/m 0 min 0 min 32 W/m 3,2 km/h (1 Bft) 91,49 %
23.04.2021 07:44 1,6 C 1,7 C 0,0 C 92 % 1029,8 hPa 0,0 l/m 0 min 0 min 32 W/m 3,2 km/h (1 Bft) 97,87 %
23.04.2021 07:46 1,6 C 1,7 C 0,0 C 92 % 1029,8 hPa 0,0 l/m 0 min 0 min 33 W/m 0,0 km/h (0 Bft) 95,74 %
23.04.2021 07:48 1,7 C 1,7 C 0,0 C 92 % 1029,9 hPa 0,0 l/m 0 min 0 min 33 W/m 3,2 km/h (1 Bft) 95,65 %
23.04.2021 07:50 1,7 C 2,2 C 0,0 C 92 % 1029,9 hPa 0,0 l/m 0 min 0 min 33 W/m 0,0 km/h (0 Bft) 93,62 %
23.04.2021 07:52 1,8 C 2,2 C 0,6 C 92 % 1030,0 hPa 0,0 l/m 0 min 0 min 34 W/m 3,2 km/h (1 Bft) 95,74 %
23.04.2021 07:54 1,9 C 2,2 C 0,6 C 92 % 1030,0 hPa 0,0 l/m 0 min 0 min 35 W/m 3,2 km/h (1 Bft) 95,74 %
23.04.2021 07:56 2,0 C 2,2 C 0,6 C 93 % 1030,0 hPa 0,0 l/m 0 min 0 min 35 W/m 0,0 km/h (0 Bft) 95,74 %
23.04.2021 07:58 2,1 C 2,2 C 0,6 C 93 % 1030,1 hPa 0,0 l/m 0 min 0 min 35 W/m 0,0 km/h (0 Bft) 95,74 %
23.04.2021 08:00 2,2 C 2,8 C 0,6 C 93 % 1030,0 hPa 0,0 l/m 0 min 0 min 37 W/m 0,0 km/h (0 Bft) 95,65 %
23.04.2021 08:02 2,3 C 2,8 C 0,6 C 93 % 1030,0 hPa 0,0 l/m 0 min 0 min 37 W/m 0,0 km/h (0 Bft) 89,36 %
23.04.2021 08:04 2,4 C 2,8 C 0,6 C 93 % 1030,1 hPa 0,0 l/m 0 min 0 min 37 W/m 0,0 km/h (0 Bft) 93,62 %
23.04.2021 08:06 2,4 C 2,8 C 0,6 C 93 % 1030,1 hPa 0,0 l/m 0 min 0 min 39 W/m 3,2 km/h (1 Bft) 89,36 %
23.04.2021 08:08 2,5 C 2,8 C 1,1 C 93 % 1030,1 hPa 0,0 l/m 0 min 0 min 39 W/m 0,0 km/h (0 Bft) 95,74 %
23.04.2021 08:10 2,5 C 2,8 C 1,1 C 93 % 1030,1 hPa 0,0 l/m 0 min 0 min 39 W/m 0,0 km/h (0 Bft) 93,62 %
23.04.2021 08:12 2,6 C 3,3 C 1,1 C 93 % 1030,1 hPa 0,0 l/m 0 min 0 min 39 W/m 3,2 km/h (1 Bft) 95,65 %
23.04.2021 08:14 2,7 C 3,3 C 1,1 C 93 % 1030,1 hPa 0,0 l/m 0 min 0 min 40 W/m 0,0 km/h (0 Bft) 100,00 %
23.04.2021 08:16 2,8 C 3,3 C 1,1 C 93 % 1030,1 hPa 0,0 l/m 0 min 0 min 40 W/m 0,0 km/h (0 Bft) 97,87 %
23.04.2021 08:18 2,8 C 3,3 C 1,1 C 93 % 1030,1 hPa 0,0 l/m 0 min 0 min 40 W/m 3,2 km/h (1 Bft) 100,00 %
23.04.2021 08:20 2,9 C 3,3 C 1,1 C 93 % 1030,1 hPa 0,0 l/m 0 min 0 min 42 W/m 0,0 km/h (0 Bft) 100,00 %
23.04.2021 08:22 2,9 C 3,3 C 1,7 C 93 % 1030,1 hPa 0,0 l/m 0 min 0 min 42 W/m 3,2 km/h (1 Bft) 100,00 %
23.04.2021 08:24 2,9 C 3,3 C 1,7 C 93 % 1030,1 hPa 0,0 l/m 0 min 0 min 43 W/m 3,2 km/h (1 Bft) 97,87 %
23.04.2021 08:26 2,9 C 3,9 C 1,7 C 93 % 1030,1 hPa 0,0 l/m 0 min 0 min 44 W/m 0,0 km/h (0 Bft) 100,00 %
23.04.2021 08:28 2,9 C 3,9 C 1,7 C 93 % 1030,2 hPa 0,0 l/m 0 min 0 min 45 W/m 3,2 km/h (1 Bft) 100,00 %
23.04.2021 08:30 3,0 C 3,9 C 1,7 C 93 % 1030,1 hPa 0,0 l/m 0 min 0 min 46 W/m 0,0 km/h (0 Bft) 100,00 %
23.04.2021 08:32 3,2 C 3,9 C 1,7 C 94 % 1030,1 hPa 0,0 l/m 0 min 0 min 47 W/m 0,0 km/h (0 Bft) 100,00 %
23.04.2021 08:34 3,3 C 4,4 C 2,3 C 94 % 1030,2 hPa 0,0 l/m 0 min 0 min 51 W/m 6,4 km/h (2 Bft) 100,00 %
23.04.2021 08:36 3,4 C 4,4 C 2,3 C 94 % 1030,2 hPa 0,0 l/m 0 min 0 min 125 W/m 3,2 km/h (1 Bft) 100,00 %
23.04.2021 08:38 3,5 C 4,4 C 2,3 C 94 % 1030,2 hPa 0,0 l/m 2 min 0 min 274 W/m 3,2 km/h (1 Bft) 100,00 %
23.04.2021 08:40 3,5 C 4,4 C 2,3 C 94 % 1030,3 hPa 0,0 l/m 2 min 0 min 306 W/m 3,2 km/h (1 Bft) 100,00 %
23.04.2021 08:42 3,8 C 4,4 C 2,3 C 94 % 1030,2 hPa 0,0 l/m 2 min 0 min 313 W/m 6,4 km/h (2 Bft) 100,00 %
23.04.2021 08:46 4,0 C 5,0 C 2,8 C 94 % 1030,2 hPa 0,0 l/m 4 min 0 min 318 W/m 3,2 km/h (1 Bft) 97,85 %
23.04.2021 08:48 4,1 C 5,0 C 2,8 C 94 % 1030,2 hPa 0,0 l/m 2 min 0 min 331 W/m 3,2 km/h (1 Bft) 100,00 %
23.04.2021 08:50 4,1 C 5,6 C 2,8 C 94 % 1030,2 hPa 0,0 l/m 2 min 0 min 333 W/m 3,2 km/h (1 Bft) 100,00 %
23.04.2021 08:52 4,3 C 7,2 C 2,8 C 93 % 1030,3 hPa 0,0 l/m 2 min 0 min 342 W/m 9,7 km/h (2 Bft) 97,87 %
23.04.2021 08:54 4,4 C 8,3 C 2,8 C 93 % 1030,3 hPa 0,0 l/m 2 min 0 min 345 W/m 12,9 km/h (3 Bft) 100,00 %
23.04.2021 08:56 4,6 C 9,4 C 3,4 C 93 % 1030,3 hPa 0,0 l/m 2 min 0 min 361 W/m 12,9 km/h (3 Bft) 100,00 %
23.04.2021 08:58 4,8 C 10,6 C 3,4 C 93 % 1030,3 hPa 0,0 l/m 2 min 0 min 367 W/m 9,7 km/h (2 Bft) 45,95 %
23.04.2021 09:00 5,0 C 11,7 C 3,4 C 91 % 1030,3 hPa 0,0 l/m 2 min 0 min 379 W/m 9,7 km/h (2 Bft) 100,00 %
23.04.2021 09:02 5,3 C 12,2 C 3,4 C 90 % 1030,3 hPa 0,0 l/m 2 min 0 min 383 W/m 9,7 km/h (2 Bft) 100,00 %
23.04.2021 09:04 5,5 C 12,2 C 3,4 C 89 % 1030,4 hPa 0,0 l/m 2 min 0 min 385 W/m 22,5 km/h (4 Bft) 100,00 %
23.04.2021 09:06 5,6 C 12,8 C 3,9 C 88 % 1030,3 hPa 0,0 l/m 2 min 0 min 405 W/m 19,3 km/h (3 Bft) 100,00 %
23.04.2021 09:08 5,9 C 13,3 C 4,5 C 87 % 1030,4 hPa 0,0 l/m 2 min 0 min 413 W/m 16,1 km/h (3 Bft) 97,87 %
23.04.2021 09:10 6,1 C 13,3 C 4,5 C 86 % 1030,4 hPa 0,0 l/m 2 min 0 min 413 W/m 12,9 km/h (3 Bft) 100,00 %
23.04.2021 09:12 6,3 C 13,3 C 5,6 C 84 % 1030,4 hPa 0,0 l/m 2 min 0 min 404 W/m 9,7 km/h (2 Bft) 100,00 %
23.04.2021 09:14 6,4 C 13,3 C 6,7 C 83 % 1030,4 hPa 0,0 l/m 2 min 0 min 395 W/m 12,9 km/h (3 Bft) 100,00 %
23.04.2021 09:16 6,6 C 13,9 C 7,8 C 82 % 1030,4 hPa 0,0 l/m 2 min 0 min 454 W/m 9,7 km/h (2 Bft) 97,87 %
23.04.2021 09:18 6,9 C 14,4 C 8,9 C 81 % 1030,4 hPa 0,0 l/m 2 min 0 min 469 W/m 22,5 km/h (4 Bft) 100,00 %
23.04.2021 09:20 7,1 C 14,4 C 8,9 C 80 % 1030,4 hPa 0,0 l/m 2 min 0 min 484 W/m 19,3 km/h (3 Bft) 100,00 %
23.04.2021 09:22 7,3 C 14,4 C 9,5 C 78 % 1030,5 hPa 0,0 l/m 2 min 0 min 479 W/m 16,1 km/h (3 Bft) 100,00 %
23.04.2021 09:24 7,4 C 13,9 C 9,5 C 76 % 1030,5 hPa 0,0 l/m 2 min 0 min 494 W/m 19,3 km/h (3 Bft) 100,00 %
23.04.2021 09:26 7,5 C 13,9 C 9,5 C 76 % 1030,5 hPa 0,0 l/m 2 min 0 min 494 W/m 22,5 km/h (4 Bft) 100,00 %
23.04.2021 09:28 7,6 C 13,9 C 9,5 C 76 % 1030,5 hPa 0,0 l/m 2 min 0 min 515 W/m 19,3 km/h (3 Bft) 100,00 %
23.04.2021 09:30 7,7 C 13,3 C 8,9 C 74 % 1030,4 hPa 0,0 l/m 2 min 0 min 385 W/m 12,9 km/h (3 Bft) 100,00 %
23.04.2021 09:32 7,6 C 12,2 C 8,9 C 73 % 1030,4 hPa 0,0 l/m 0 min 0 min 142 W/m 12,9 km/h (3 Bft) 100,00 %
23.04.2021 09:34 7,6 C 12,2 C 9,5 C 73 % 1030,5 hPa 0,0 l/m 2 min 0 min 507 W/m 16,1 km/h (3 Bft) 100,00 %
23.04.2021 09:36 7,5 C 12,8 C 10,0 C 73 % 1030,5 hPa 0,0 l/m 2 min 0 min 519 W/m 16,1 km/h (3 Bft) 100,00 %
23.04.2021 09:38 7,8 C 13,9 C 10,0 C 74 % 1030,5 hPa 0,0 l/m 2 min 0 min 465 W/m 6,4 km/h (2 Bft) 100,00 %
23.04.2021 09:40 7,9 C 13,3 C 9,5 C 74 % 1030,5 hPa 0,0 l/m 2 min 0 min 454 W/m 9,7 km/h (2 Bft) 100,00 %
23.04.2021 09:42 8,0 C 13,3 C 9,5 C 73 % 1030,5 hPa 0,0 l/m 2 min 0 min 432 W/m 6,4 km/h (2 Bft) 100,00 %
23.04.2021 09:44 8,1 C 14,4 C 10,0 C 73 % 1030,4 hPa 0,0 l/m 2 min 0 min 511 W/m 12,9 km/h (3 Bft) 100,00 %
23.04.2021 09:46 8,3 C 15,0 C 10,6 C 73 % 1030,4 hPa 0,0 l/m 2 min 0 min 388 W/m 12,9 km/h (3 Bft) 100,00 %
23.04.2021 09:48 8,4 C 15,0 C 10,6 C 71 % 1030,4 hPa 0,0 l/m 2 min 0 min 269 W/m 9,7 km/h (2 Bft) 100,00 %
23.04.2021 09:50 8,4 C 15,6 C 10,6 C 71 % 1030,4 hPa 0,0 l/m 0 min 0 min 110 W/m 9,7 km/h (2 Bft) 100,00 %
23.04.2021 09:52 8,5 C 16,1 C 10,0 C 70 % 1030,4 hPa 0,0 l/m 0 min 0 min 88 W/m 12,9 km/h (3 Bft) 100,00 %
23.04.2021 09:54 8,5 C 16,1 C 10,0 C 69 % 1030,5 hPa 0,0 l/m 0 min 0 min 87 W/m 12,9 km/h (3 Bft) 100,00 %
23.04.2021 09:56 8,6 C 15,6 C 9,5 C 69 % 1030,4 hPa 0,0 l/m 0 min 0 min 112 W/m 9,7 km/h (2 Bft) 100,00 %
23.04.2021 09:58 8,6 C 15,6 C 9,5 C 68 % 1030,4 hPa 0,0 l/m 2 min 0 min 376 W/m 12,9 km/h (3 Bft) 100,00 %
23.04.2021 10:00 8,6 C 15,6 C 9,5 C 68 % 1030,5 hPa 0,0 l/m 0 min 0 min 188 W/m 12,9 km/h (3 Bft) 100,00 %
23.04.2021 10:02 8,6 C 15,0 C 8,9 C 68 % 1030,5 hPa 0,0 l/m 0 min 0 min 118 W/m 12,9 km/h (3 Bft) 100,00 %
23.04.2021 10:04 8,8 C 15,6 C 8,9 C 69 % 1030,4 hPa 0,0 l/m 0 min 0 min 103 W/m 9,7 km/h (2 Bft) 100,00 %
23.04.2021 10:06 8,8 C 15,6 C 7,8 C 69 % 1030,4 hPa 0,0 l/m 0 min 0 min 93 W/m 9,7 km/h (2 Bft) 95,74 %
23.04.2021 10:08 8,9 C 15,6 C 7,8 C 69 % 1030,5 hPa 0,0 l/m 0 min 0 min 92 W/m 16,1 km/h (3 Bft) 97,87 %
23.04.2021 10:10 9,0 C 15,6 C 7,3 C 68 % 1030,4 hPa 0,0 l/m 0 min 0 min 96 W/m 9,7 km/h (2 Bft) 97,83 %
23.04.2021 10:12 9,0 C 15,6 C 7,8 C 67 % 1030,4 hPa 0,0 l/m 2 min 0 min 391 W/m 3,2 km/h (1 Bft) 91,49 %
23.04.2021 10:14 9,2 C 16,7 C 8,4 C 68 % 1030,4 hPa 0,0 l/m 2 min 0 min 505 W/m 6,4 km/h (2 Bft) 93,62 %
23.04.2021 10:16 9,3 C 16,7 C 9,5 C 67 % 1030,4 hPa 0,0 l/m 2 min 0 min 515 W/m 16,1 km/h (3 Bft) 95,74 %
23.04.2021 10:18 9,4 C 16,7 C 10,0 C 66 % 1030,4 hPa 0,0 l/m 2 min 0 min 492 W/m 12,9 km/h (3 Bft) 93,62 %
23.04.2021 10:20 9,5 C 16,1 C 8,9 C 66 % 1030,4 hPa 0,0 l/m 2 min 0 min 537 W/m 12,9 km/h (3 Bft) 95,65 %
23.04.2021 10:22 9,6 C 16,1 C 8,9 C 65 % 1030,4 hPa 0,0 l/m 2 min 0 min 487 W/m 6,4 km/h (2 Bft) 95,74 %
23.04.2021 10:24 9,7 C 15,6 C 10,0 C 65 % 1030,4 hPa 0,0 l/m 2 min 0 min 315 W/m 9,7 km/h (2 Bft) 95,74 %
23.04.2021 10:26 9,7 C 15,6 C 9,5 C 64 % 1030,4 hPa 0,0 l/m 2 min 0 min 362 W/m 6,4 km/h (2 Bft) 95,74 %
23.04.2021 10:28 9,8 C 15,0 C 8,9 C 64 % 1030,4 hPa 0,0 l/m 2 min 0 min 629 W/m 12,9 km/h (3 Bft) 95,74 %
23.04.2021 10:30 9,8 C 12,8 C 8,4 C 64 % 1030,4 hPa 0,0 l/m 2 min 0 min 632 W/m 16,1 km/h (3 Bft) 95,74 %
23.04.2021 10:32 9,7 C 12,8 C 7,8 C 64 % 1030,3 hPa 0,0 l/m 2 min 0 min 641 W/m 6,4 km/h (2 Bft) 95,74 %
23.04.2021 10:34 9,8 C 12,8 C 8,9 C 65 % 1030,3 hPa 0,0 l/m 2 min 0 min 652 W/m 9,7 km/h (2 Bft) 95,65 %
23.04.2021 10:36 9,9 C 13,3 C 10,6 C 66 % 1030,3 hPa 0,0 l/m 2 min 0 min 658 W/m 9,7 km/h (2 Bft) 93,62 %
23.04.2021 10:38 10,0 C 13,9 C 10,0 C 66 % 1030,3 hPa 0,0 l/m 2 min 0 min 663 W/m 6,4 km/h (2 Bft) 95,74 %
23.04.2021 10:40 10,1 C 13,3 C 9,5 C 64 % 1030,3 hPa 0,0 l/m 2 min 0 min 665 W/m 16,1 km/h (3 Bft) 95,74 %
23.04.2021 10:42 10,1 C 13,3 C 8,9 C 65 % 1030,3 hPa 0,0 l/m 2 min 0 min 671 W/m 9,7 km/h (2 Bft) 95,74 %
23.04.2021 10:44 10,1 C 13,3 C 8,4 C 65 % 1030,3 hPa 0,0 l/m 2 min 0 min 680 W/m 6,4 km/h (2 Bft) 95,65 %
23.04.2021 10:46 10,1 C 13,3 C 8,4 C 64 % 1030,3 hPa 0,0 l/m 2 min 0 min 682 W/m 12,9 km/h (3 Bft) 93,62 %
23.04.2021 10:48 10,0 C 13,3 C 8,4 C 65 % 1030,3 hPa 0,0 l/m 2 min 0 min 679 W/m 9,7 km/h (2 Bft) 95,74 %
23.04.2021 10:50 10,0 C 13,3 C 8,9 C 64 % 1030,3 hPa 0,0 l/m 2 min 0 min 684 W/m 12,9 km/h (3 Bft) 95,74 %
23.04.2021 10:52 9,9 C 12,8 C 10,0 C 64 % 1030,4 hPa 0,0 l/m 2 min 0 min 691 W/m 16,1 km/h (3 Bft) 91,49 %
23.04.2021 10:54 9,9 C 12,8 C 11,1 C 64 % 1030,3 hPa 0,0 l/m 2 min 0 min 696 W/m 12,9 km/h (3 Bft) 95,74 %
23.04.2021 10:56 9,8 C 12,2 C 12,3 C 64 % 1030,3 hPa 0,0 l/m 2 min 0 min 696 W/m 19,3 km/h (3 Bft) 95,65 %
23.04.2021 10:58 9,7 C 11,7 C 12,8 C 63 % 1030,3 hPa 0,0 l/m 2 min 0 min 698 W/m 12,9 km/h (3 Bft) 95,74 %
23.04.2021 11:00 9,6 C 12,2 C 12,8 C 64 % 1030,3 hPa 0,0 l/m 2 min 0 min 703 W/m 6,4 km/h (2 Bft) 93,62 %
23.04.2021 11:02 9,5 C 12,2 C 12,8 C 64 % 1030,3 hPa 0,0 l/m 2 min 0 min 702 W/m 9,7 km/h (2 Bft) 93,62 %
23.04.2021 11:04 9,5 C 12,2 C 10,6 C 65 % 1030,3 hPa 0,0 l/m 2 min 0 min 714 W/m 12,9 km/h (3 Bft) 95,74 %
23.04.2021 11:06 9,5 C 12,8 C 9,5 C 66 % 1030,2 hPa 0,0 l/m 2 min 0 min 724 W/m 12,9 km/h (3 Bft) 95,74 %
23.04.2021 11:08 9,5 C 12,2 C 8,9 C 65 % 1030,2 hPa 0,0 l/m 2 min 0 min 726 W/m 12,9 km/h (3 Bft) 95,65 %
23.04.2021 11:10 9,6 C 12,2 C 8,9 C 66 % 1030,2 hPa 0,0 l/m 2 min 0 min 729 W/m 12,9 km/h (3 Bft) 93,62 %
23.04.2021 11:12 9,7 C 11,7 C 8,9 C 66 % 1030,2 hPa 0,0 l/m 2 min 0 min 734 W/m 16,1 km/h (3 Bft) 95,74 %
23.04.2021 11:14 9,7 C 11,7 C 8,4 C 65 % 1030,2 hPa 0,0 l/m 2 min 0 min 731 W/m 12,9 km/h (3 Bft) 95,74 %
23.04.2021 11:16 9,7 C 11,7 C 7,8 C 64 % 1030,2 hPa 0,0 l/m 2 min 0 min 735 W/m 16,1 km/h (3 Bft) 93,62 %
23.04.2021 11:18 9,7 C 12,2 C 7,8 C 65 % 1030,2 hPa 0,0 l/m 2 min 0 min 736 W/m 12,9 km/h (3 Bft) 95,65 %
23.04.2021 11:20 9,7 C 12,2 C 7,3 C 64 % 1030,2 hPa 0,0 l/m 2 min 0 min 744 W/m 12,9 km/h (3 Bft) 97,87 %
23.04.2021 11:22 9,7 C 12,2 C 7,8 C 64 % 1030,2 hPa 0,0 l/m 2 min 0 min 751 W/m 12,9 km/h (3 Bft) 97,87 %
23.04.2021 11:24 9,8 C 13,3 C 7,8 C 65 % 1030,2 hPa 0,0 l/m 2 min 0 min 756 W/m 9,7 km/h (2 Bft) 97,87 %
23.04.2021 11:26 9,9 C 13,3 C 7,8 C 64 % 1030,2 hPa 0,0 l/m 2 min 0 min 762 W/m 9,7 km/h (2 Bft) 95,74 %
23.04.2021 11:28 9,9 C 13,9 C 7,8 C 64 % 1030,2 hPa 0,0 l/m 2 min 0 min 761 W/m 16,1 km/h (3 Bft) 97,87 %
23.04.2021 11:30 10,0 C 13,9 C 7,8 C 64 % 1030,2 hPa 0,0 l/m 2 min 0 min 764 W/m 9,7 km/h (2 Bft) 97,83 %
23.04.2021 11:32 10,0 C 13,9 C 7,8 C 64 % 1030,2 hPa 0,0 l/m 2 min 0 min 772 W/m 12,9 km/h (3 Bft) 95,74 %
23.04.2021 11:34 10,1 C 13,9 C 7,8 C 64 % 1030,2 hPa 0,0 l/m 2 min 0 min 771 W/m 19,3 km/h (3 Bft) 100,00 %
23.04.2021 11:36 10,1 C 13,9 C 8,4 C 63 % 1030,2 hPa 0,0 l/m 2 min 0 min 779 W/m 12,9 km/h (3 Bft) 100,00 %
23.04.2021 11:38 10,3 C 13,9 C 8,4 C 64 % 1030,2 hPa 0,0 l/m 2 min 0 min 783 W/m 6,4 km/h (2 Bft) 100,00 %
23.04.2021 11:40 10,4 C 14,4 C 8,4 C 63 % 1030,2 hPa 0,0 l/m 2 min 0 min 785 W/m 9,7 km/h (2 Bft) 100,00 %
23.04.2021 11:42 10,4 C 13,9 C 8,4 C 63 % 1030,2 hPa 0,0 l/m 2 min 0 min 788 W/m 12,9 km/h (3 Bft) 100,00 %
23.04.2021 11:44 10,4 C 13,9 C 8,9 C 63 % 1030,2 hPa 0,0 l/m 2 min 0 min 784 W/m 12,9 km/h (3 Bft) 100,00 %
23.04.2021 11:46 10,4 C 13,3 C 9,5 C 62 % 1030,2 hPa 0,0 l/m 2 min 0 min 791 W/m 3,2 km/h (1 Bft) 97,87 %
23.04.2021 11:48 10,4 C 13,3 C 10,6 C 63 % 1030,2 hPa 0,0 l/m 2 min 0 min 796 W/m 16,1 km/h (3 Bft) 100,00 %
23.04.2021 11:50 10,4 C 12,8 C 11,1 C 63 % 1030,2 hPa 0,0 l/m 2 min 0 min 800 W/m 9,7 km/h (2 Bft) 100,00 %
23.04.2021 11:52 10,4 C 13,3 C 10,6 C 63 % 1030,2 hPa 0,0 l/m 2 min 0 min 803 W/m 9,7 km/h (2 Bft) 100,00 %
23.04.2021 11:54 10,5 C 13,3 C 10,6 C 63 % 1030,2 hPa 0,0 l/m 2 min 0 min 803 W/m 9,7 km/h (2 Bft) 100,00 %
23.04.2021 11:56 10,6 C 13,9 C 11,1 C 63 % 1030,2 hPa 0,0 l/m 2 min 0 min 804 W/m 12,9 km/h (3 Bft) 100,00 %
23.04.2021 11:58 10,7 C 13,9 C 11,7 C 63 % 1030,2 hPa 0,0 l/m 2 min 0 min 821 W/m 9,7 km/h (2 Bft) 100,00 %
23.04.2021 12:00 10,9 C 14,4 C 11,7 C 63 % 1030,1 hPa 0,0 l/m 2 min 0 min 815 W/m 12,9 km/h (3 Bft) 100,00 %
23.04.2021 12:02 11,0 C 15,0 C 11,1 C 62 % 1030,1 hPa 0,0 l/m 2 min 0 min 818 W/m 9,7 km/h (2 Bft) 100,00 %
23.04.2021 12:04 11,0 C 15,0 C 11,1 C 62 % 1030,1 hPa 0,0 l/m 2 min 0 min 818 W/m 6,4 km/h (2 Bft) 100,00 %
23.04.2021 12:06 11,0 C 14,4 C 11,1 C 61 % 1030,1 hPa 0,0 l/m 2 min 0 min 823 W/m 19,3 km/h (3 Bft) 100,00 %
23.04.2021 12:08 11,0 C 15,0 C 12,3 C 61 % 1030,1 hPa 0,0 l/m 2 min 0 min 822 W/m 19,3 km/h (3 Bft) 100,00 %
23.04.2021 12:10 11,0 C 14,4 C 12,3 C 61 % 1030,1 hPa 0,0 l/m 2 min 0 min 827 W/m 16,1 km/h (3 Bft) 100,00 %
23.04.2021 12:12 11,1 C 15,6 C 11,7 C 62 % 1030,1 hPa 0,0 l/m 2 min 0 min 831 W/m 9,7 km/h (2 Bft) 100,00 %
23.04.2021 12:14 11,2 C 15,6 C 11,7 C 61 % 1030,1 hPa 0,0 l/m 2 min 0 min 838 W/m 12,9 km/h (3 Bft) 100,00 %
23.04.2021 12:16 11,4 C 16,7 C 11,1 C 62 % 1030,1 hPa 0,0 l/m 2 min 0 min 843 W/m 12,9 km/h (3 Bft) 100,00 %
23.04.2021 12:18 11,5 C 16,7 C 10,6 C 61 % 1030,0 hPa 0,0 l/m 2 min 0 min 840 W/m 12,9 km/h (3 Bft) 100,00 %
23.04.2021 12:22 11,7 C 17,2 C 11,1 C 61 % 1030,1 hPa 0,0 l/m 4 min 0 min 844 W/m 9,7 km/h (2 Bft) 100,00 %
23.04.2021 12:24 11,8 C 16,7 C 11,1 C 59 % 1030,1 hPa 0,0 l/m 2 min 0 min 851 W/m 9,7 km/h (2 Bft) 100,00 %
23.04.2021 12:26 11,8 C 16,7 C 12,8 C 59 % 1030,0 hPa 0,0 l/m 2 min 0 min 850 W/m 9,7 km/h (2 Bft) 100,00 %
23.04.2021 12:28 11,9 C 16,7 C 15,6 C 60 % 1030,0 hPa 0,0 l/m 2 min 0 min 852 W/m 12,9 km/h (3 Bft) 100,00 %
23.04.2021 12:30 12,0 C 17,2 C 16,7 C 60 % 1030,0 hPa 0,0 l/m 2 min 0 min 854 W/m 16,1 km/h (3 Bft) 100,00 %
23.04.2021 12:32 12,2 C 17,2 C 17,8 C 60 % 1030,0 hPa 0,0 l/m 2 min 0 min 856 W/m 9,7 km/h (2 Bft) 97,87 %
23.04.2021 12:34 12,3 C 17,2 C 18,9 C 59 % 1030,0 hPa 0,0 l/m 2 min 0 min 857 W/m 9,7 km/h (2 Bft) 100,00 %
23.04.2021 12:36 12,3 C 17,2 C 18,4 C 59 % 1030,0 hPa 0,0 l/m 2 min 0 min 870 W/m 12,9 km/h (3 Bft) 97,87 %
23.04.2021 12:38 12,4 C 17,2 C 18,9 C 60 % 1030,0 hPa 0,0 l/m 2 min 0 min 857 W/m 6,4 km/h (2 Bft) 100,00 %
23.04.2021 12:40 12,4 C 16,7 C 20,0 C 59 % 1030,0 hPa 0,0 l/m 2 min 0 min 858 W/m 12,9 km/h (3 Bft) 100,00 %
23.04.2021 12:42 12,4 C 16,7 C 19,5 C 59 % 1030,0 hPa 0,0 l/m 2 min 0 min 854 W/m 19,3 km/h (3 Bft) 100,00 %
23.04.2021 12:44 12,4 C 16,1 C 20,0 C 58 % 1030,0 hPa 0,0 l/m 2 min 0 min 854 W/m 12,9 km/h (3 Bft) 97,87 %
23.04.2021 12:46 12,4 C 16,7 C 20,0 C 59 % 1029,9 hPa 0,0 l/m 2 min 0 min 857 W/m 19,3 km/h (3 Bft) 100,00 %
23.04.2021 12:48 12,5 C 16,7 C 20,6 C 58 % 1030,0 hPa 0,0 l/m 2 min 0 min 858 W/m 16,1 km/h (3 Bft) 100,00 %
23.04.2021 12:50 12,5 C 16,7 C 21,1 C 58 % 1030,0 hPa 0,0 l/m 2 min 0 min 874 W/m 12,9 km/h (3 Bft) 100,00 %
23.04.2021 12:52 12,5 C 16,7 C 21,7 C 58 % 1029,9 hPa 0,0 l/m 2 min 0 min 868 W/m 12,9 km/h (3 Bft) 97,87 %
23.04.2021 12:54 12,5 C 17,2 C 21,1 C 59 % 1029,9 hPa 0,0 l/m 2 min 0 min 865 W/m 16,1 km/h (3 Bft) 100,00 %
23.04.2021 12:56 12,6 C 17,2 C 20,6 C 57 % 1029,9 hPa 0,0 l/m 2 min 0 min 865 W/m 16,1 km/h (3 Bft) 100,00 %
23.04.2021 12:58 12,6 C 17,8 C 21,7 C 57 % 1029,9 hPa 0,0 l/m 2 min 0 min 874 W/m 9,7 km/h (2 Bft) 100,00 %
23.04.2021 13:00 12,8 C 17,2 C 20,6 C 58 % 1030,0 hPa 0,0 l/m 2 min 0 min 874 W/m 16,1 km/h (3 Bft) 100,00 %
23.04.2021 13:02 12,9 C 17,2 C 18,4 C 57 % 1029,9 hPa 0,0 l/m 2 min 0 min 876 W/m 9,7 km/h (2 Bft) 100,00 %
23.04.2021 13:04 12,9 C 17,8 C 16,7 C 56 % 1029,9 hPa 0,0 l/m 2 min 0 min 878 W/m 6,4 km/h (2 Bft) 100,00 %
23.04.2021 13:06 12,9 C 17,8 C 15,0 C 56 % 1029,9 hPa 0,0 l/m 2 min 0 min 879 W/m 12,9 km/h (3 Bft) 100,00 %
23.04.2021 13:08 13,0 C 17,8 C 13,9 C 57 % 1029,8 hPa 0,0 l/m 2 min 0 min 879 W/m 19,3 km/h (3 Bft) 97,87 %
23.04.2021 13:10 13,0 C 17,8 C 13,4 C 57 % 1029,9 hPa 0,0 l/m 2 min 0 min 876 W/m 12,9 km/h (3 Bft) 97,87 %
23.04.2021 13:12 13,1 C 17,2 C 13,9 C 56 % 1029,9 hPa 0,0 l/m 2 min 0 min 877 W/m 16,1 km/h (3 Bft) 95,74 %
23.04.2021 13:14 13,2 C 17,8 C 13,9 C 56 % 1029,8 hPa 0,0 l/m 2 min 0 min 883 W/m 12,9 km/h (3 Bft) 97,87 %
23.04.2021 13:16 13,3 C 17,8 C 13,9 C 56 % 1029,7 hPa 0,0 l/m 2 min 0 min 873 W/m 16,1 km/h (3 Bft) 97,87 %
23.04.2021 13:18 13,4 C 17,8 C 15,0 C 56 % 1029,7 hPa 0,0 l/m 2 min 0 min 878 W/m 12,9 km/h (3 Bft) 97,83 %
23.04.2021 13:20 13,4 C 17,2 C 17,3 C 55 % 1029,7 hPa 0,0 l/m 2 min 0 min 884 W/m 19,3 km/h (3 Bft) 97,87 %
23.04.2021 13:22 13,5 C 16,7 C 19,5 C 53 % 1029,7 hPa 0,0 l/m 2 min 0 min 885 W/m 12,9 km/h (3 Bft) 93,62 %
23.04.2021 13:24 13,4 C 17,8 C 18,9 C 54 % 1029,8 hPa 0,0 l/m 2 min 0 min 886 W/m 12,9 km/h (3 Bft) 97,87 %
23.04.2021 13:26 13,5 C 17,8 C 20,6 C 54 % 1029,7 hPa 0,0 l/m 2 min 0 min 887 W/m 6,4 km/h (2 Bft) 97,87 %
23.04.2021 13:28 13,6 C 18,3 C 20,6 C 55 % 1029,7 hPa 0,0 l/m 2 min 0 min 886 W/m 9,7 km/h (2 Bft) 95,65 %
23.04.2021 13:30 13,7 C 18,9 C 20,0 C 56 % 1029,7 hPa 0,0 l/m 2 min 0 min 879 W/m 12,9 km/h (3 Bft) 97,87 %
23.04.2021 13:32 13,8 C 18,9 C 20,6 C 55 % 1029,7 hPa 0,0 l/m 2 min 0 min 879 W/m 9,7 km/h (2 Bft) 93,62 %
23.04.2021 13:34 13,8 C 18,9 C 20,6 C 55 % 1029,7 hPa 0,0 l/m 2 min 0 min 882 W/m 9,7 km/h (2 Bft) 97,87 %
23.04.2021 13:36 13,9 C 18,9 C 21,1 C 54 % 1029,7 hPa 0,0 l/m 2 min 0 min 881 W/m 16,1 km/h (3 Bft) 97,87 %
23.04.2021 13:38 13,9 C 18,3 C 21,7 C 54 % 1029,7 hPa 0,0 l/m 2 min 0 min 881 W/m 9,7 km/h (2 Bft) 97,87 %
23.04.2021 13:40 13,9 C 18,3 C 20,0 C 54 % 1029,7 hPa 0,0 l/m 2 min 0 min 882 W/m 12,9 km/h (3 Bft) 97,83 %
23.04.2021 13:42 13,9 C 18,9 C 18,4 C 54 % 1029,7 hPa 0,0 l/m 2 min 0 min 883 W/m 12,9 km/h (3 Bft) 97,87 %
23.04.2021 13:44 13,8 C 18,9 C 16,7 C 55 % 1029,7 hPa 0,0 l/m 2 min 0 min 882 W/m 6,4 km/h (2 Bft) 97,87 %
23.04.2021 13:46 13,9 C 18,9 C 15,6 C 55 % 1029,6 hPa 0,0 l/m 2 min 0 min 882 W/m 9,7 km/h (2 Bft) 93,62 %
23.04.2021 13:48 14,1 C 19,4 C 14,5 C 55 % 1029,7 hPa 0,0 l/m 2 min 0 min 882 W/m 12,9 km/h (3 Bft) 97,87 %
23.04.2021 13:50 14,2 C 18,9 C 13,9 C 53 % 1029,7 hPa 0,0 l/m 2 min 0 min 879 W/m 16,1 km/h (3 Bft) 97,87 %
23.04.2021 13:52 14,2 C 18,3 C 12,8 C 53 % 1029,7 hPa 0,0 l/m 2 min 0 min 883 W/m 12,9 km/h (3 Bft) 97,83 %
23.04.2021 13:54 14,2 C 18,3 C 12,8 C 53 % 1029,7 hPa 0,0 l/m 2 min 0 min 885 W/m 12,9 km/h (3 Bft) 97,87 %
23.04.2021 13:56 14,3 C 18,9 C 12,8 C 53 % 1029,8 hPa 0,0 l/m 2 min 0 min 880 W/m 16,1 km/h (3 Bft) 97,87 %
23.04.2021 13:58 14,3 C 18,9 C 12,8 C 53 % 1029,7 hPa 0,0 l/m 2 min 0 min 880 W/m 16,1 km/h (3 Bft) 97,87 %
23.04.2021 14:00 14,3 C 19,4 C 12,8 C 53 % 1029,8 hPa 0,0 l/m 2 min 0 min 879 W/m 9,7 km/h (2 Bft) 95,74 %
23.04.2021 14:02 14,2 C 18,9 C 12,8 C 52 % 1029,7 hPa 0,0 l/m 2 min 0 min 879 W/m 9,7 km/h (2 Bft) 100,00 %
23.04.2021 14:07 14,2 C 18,9 C 12,8 C 53 % 1029,7 hPa 0,0 l/m 5 min 0 min 870 W/m 22,5 km/h (4 Bft) 95,77 %
23.04.2021 14:08 14,2 C 18,9 C 12,8 C 53 % 1029,7 hPa 0,0 l/m 1 min 0 min 857 W/m 22,5 km/h (4 Bft) 100,00 %
23.04.2021 14:10 14,2 C 18,9 C 12,8 C 53 % 1029,6 hPa 0,0 l/m 2 min 0 min 867 W/m 16,1 km/h (3 Bft) 95,74 %
23.04.2021 14:12 14,2 C 18,3 C 12,8 C 53 % 1029,6 hPa 0,0 l/m 2 min 0 min 866 W/m 19,3 km/h (3 Bft) 96,88 %
23.04.2021 14:14 14,2 C 18,9 C 12,8 C 52 % 1029,6 hPa 0,0 l/m 2 min 0 min 868 W/m 12,9 km/h (3 Bft) 95,74 %
23.04.2021 14:16 14,3 C 19,4 C 12,8 C 52 % 1029,6 hPa 0,0 l/m 2 min 0 min 872 W/m 16,1 km/h (3 Bft) 97,83 %
23.04.2021 14:21 14,4 C 20,0 C 12,8 C 50 % 1029,6 hPa 0,0 l/m 5 min 0 min 866 W/m 19,3 km/h (3 Bft) 95,38 %
23.04.2021 14:22 14,4 C 20,0 C 11,1 C 50 % 1029,6 hPa 0,0 l/m 1 min 0 min 864 W/m 9,7 km/h (2 Bft) 100,00 %
23.04.2021 14:24 14,4 C 20,0 C 10,6 C 50 % 1029,5 hPa 0,0 l/m 2 min 0 min 864 W/m 12,9 km/h (3 Bft) 97,87 %
23.04.2021 14:26 14,5 C 19,4 C 11,1 C 51 % 1029,6 hPa 0,0 l/m 2 min 0 min 863 W/m 19,3 km/h (3 Bft) 95,74 %
23.04.2021 14:28 14,5 C 19,4 C 11,1 C 50 % 1029,5 hPa 0,0 l/m 2 min 0 min 864 W/m 16,1 km/h (3 Bft) 97,83 %
23.04.2021 14:30 14,6 C 19,4 C 11,1 C 50 % 1029,6 hPa 0,0 l/m 2 min 0 min 860 W/m 19,3 km/h (3 Bft) 95,74 %
23.04.2021 14:32 14,6 C 19,4 C 11,1 C 51 % 1029,6 hPa 0,0 l/m 2 min 0 min 860 W/m 16,1 km/h (3 Bft) 97,87 %
23.04.2021 14:34 14,6 C 20,0 C 11,1 C 52 % 1029,6 hPa 0,0 l/m 2 min 0 min 859 W/m 22,5 km/h (4 Bft) 97,87 %
23.04.2021 14:36 14,6 C 20,0 C 11,1 C 51 % 1029,5 hPa 0,0 l/m 2 min 0 min 854 W/m 12,9 km/h (3 Bft) 97,87 %
23.04.2021 14:38 14,6 C 20,0 C 11,1 C 51 % 1029,5 hPa 0,0 l/m 2 min 0 min 852 W/m 12,9 km/h (3 Bft) 97,87 %
23.04.2021 14:40 14,7 C 20,0 C 11,1 C 52 % 1029,5 hPa 0,0 l/m 2 min 0 min 851 W/m 19,3 km/h (3 Bft) 97,83 %
23.04.2021 14:42 14,8 C 20,0 C 11,1 C 52 % 1029,5 hPa 0,0 l/m 2 min 0 min 847 W/m 12,9 km/h (3 Bft) 95,74 %
23.04.2021 14:44 15,0 C 20,0 C 11,7 C 51 % 1029,5 hPa 0,0 l/m 2 min 0 min 846 W/m 16,1 km/h (3 Bft) 97,87 %
23.04.2021 14:46 14,9 C 20,0 C 11,1 C 49 % 1029,5 hPa 0,0 l/m 2 min 0 min 844 W/m 22,5 km/h (4 Bft) 97,87 %
23.04.2021 14:48 14,9 C 20,6 C 11,1 C 50 % 1029,5 hPa 0,0 l/m 2 min 0 min 844 W/m 12,9 km/h (3 Bft) 97,87 %
23.04.2021 14:50 14,8 C 20,6 C 11,1 C 50 % 1029,5 hPa 0,0 l/m 2 min 0 min 843 W/m 6,4 km/h (2 Bft) 97,87 %
23.04.2021 14:52 14,9 C 20,6 C 11,7 C 51 % 1029,5 hPa 0,0 l/m 2 min 0 min 839 W/m 19,3 km/h (3 Bft) 97,83 %
23.04.2021 14:54 14,9 C 20,6 C 11,7 C 52 % 1029,5 hPa 0,0 l/m 2 min 0 min 839 W/m 22,5 km/h (4 Bft) 97,87 %
23.04.2021 14:56 14,9 C 20,0 C 11,7 C 50 % 1029,4 hPa 0,0 l/m 2 min 0 min 835 W/m 12,9 km/h (3 Bft) 97,87 %
23.04.2021 14:58 14,9 C 19,4 C 11,7 C 50 % 1029,4 hPa 0,0 l/m 2 min 0 min 827 W/m 22,5 km/h (4 Bft) 97,87 %
23.04.2021 15:00 14,8 C 18,9 C 11,1 C 51 % 1029,3 hPa 0,0 l/m 2 min 0 min 814 W/m 12,9 km/h (3 Bft) 95,74 %
23.04.2021 15:02 14,8 C 19,4 C 11,1 C 52 % 1029,3 hPa 0,0 l/m 2 min 0 min 804 W/m 9,7 km/h (2 Bft) 97,83 %
23.04.2021 15:04 14,8 C 20,0 C 11,1 C 53 % 1029,3 hPa 0,0 l/m 2 min 0 min 811 W/m 16,1 km/h (3 Bft) 97,87 %
23.04.2021 15:06 14,9 C 20,0 C 11,7 C 53 % 1029,3 hPa 0,0 l/m 2 min 0 min 818 W/m 19,3 km/h (3 Bft) 95,74 %
23.04.2021 15:08 14,9 C 19,4 C 11,1 C 52 % 1029,3 hPa 0,0 l/m 2 min 0 min 813 W/m 12,9 km/h (3 Bft) 97,87 %
23.04.2021 15:10 14,9 C 19,4 C 11,1 C 53 % 1029,2 hPa 0,0 l/m 2 min 0 min 804 W/m 12,9 km/h (3 Bft) 100,00 %
23.04.2021 15:12 15,0 C 20,0 C 11,1 C 53 % 1029,2 hPa 0,0 l/m 2 min 0 min 814 W/m 12,9 km/h (3 Bft) 100,00 %
23.04.2021 15:14 15,0 C 20,0 C 11,7 C 52 % 1029,2 hPa 0,0 l/m 2 min 0 min 814 W/m 12,9 km/h (3 Bft) 100,00 %
23.04.2021 15:16 15,0 C 20,0 C 11,1 C 51 % 1029,2 hPa 0,0 l/m 2 min 0 min 807 W/m 9,7 km/h (2 Bft) 100,00 %
23.04.2021 15:18 15,1 C 20,6 C 11,7 C 53 % 1029,2 hPa 0,0 l/m 2 min 0 min 802 W/m 9,7 km/h (2 Bft) 100,00 %
23.04.2021 15:20 15,1 C 20,0 C 11,7 C 52 % 1029,1 hPa 0,0 l/m 2 min 0 min 784 W/m 16,1 km/h (3 Bft) 97,87 %
23.04.2021 15:22 15,2 C 20,0 C 11,7 C 52 % 1029,1 hPa 0,0 l/m 2 min 0 min 768 W/m 12,9 km/h (3 Bft) 100,00 %
23.04.2021 15:24 15,3 C 20,0 C 11,7 C 51 % 1029,1 hPa 0,0 l/m 2 min 0 min 762 W/m 9,7 km/h (2 Bft) 100,00 %
23.04.2021 15:26 15,3 C 20,0 C 11,7 C 52 % 1029,1 hPa 0,0 l/m 2 min 0 min 749 W/m 12,9 km/h (3 Bft) 100,00 %
23.04.2021 15:28 15,3 C 20,6 C 11,7 C 53 % 1029,1 hPa 0,0 l/m 2 min 0 min 744 W/m 16,1 km/h (3 Bft) 100,00 %
23.04.2021 15:30 15,3 C 20,0 C 11,7 C 52 % 1029,1 hPa 0,0 l/m 2 min 0 min 750 W/m 12,9 km/h (3 Bft) 97,87 %
23.04.2021 15:32 15,4 C 20,0 C 11,7 C 52 % 1029,1 hPa 0,0 l/m 2 min 0 min 763 W/m 9,7 km/h (2 Bft) 100,00 %
23.04.2021 15:34 15,4 C 20,6 C 11,7 C 51 % 1029,0 hPa 0,0 l/m 2 min 0 min 767 W/m 9,7 km/h (2 Bft) 100,00 %
23.04.2021 15:36 15,3 C 20,6 C 11,7 C 51 % 1029,1 hPa 0,0 l/m 2 min 0 min 751 W/m 12,9 km/h (3 Bft) 100,00 %
23.04.2021 15:38 15,1 C 20,0 C 11,7 C 51 % 1029,0 hPa 0,0 l/m 2 min 0 min 752 W/m 16,1 km/h (3 Bft) 97,83 %
23.04.2021 15:40 15,0 C 20,6 C 11,7 C 53 % 1029,0 hPa 0,0 l/m 2 min 0 min 745 W/m 19,3 km/h (3 Bft) 95,74 %
23.04.2021 15:42 15,0 C 21,1 C 11,7 C 52 % 1029,0 hPa 0,0 l/m 2 min 0 min 743 W/m 16,1 km/h (3 Bft) 97,87 %
23.04.2021 15:44 15,0 C 20,6 C 11,7 C 53 % 1029,0 hPa 0,0 l/m 2 min 0 min 726 W/m 16,1 km/h (3 Bft) 97,87 %
23.04.2021 15:46 15,1 C 20,6 C 11,7 C 52 % 1029,0 hPa 0,0 l/m 2 min 0 min 726 W/m 12,9 km/h (3 Bft) 97,87 %
23.04.2021 15:48 15,1 C 20,6 C 11,7 C 52 % 1029,0 hPa 0,0 l/m 2 min 0 min 740 W/m 16,1 km/h (3 Bft) 97,87 %
23.04.2021 15:50 15,3 C 20,0 C 11,7 C 51 % 1029,0 hPa 0,0 l/m 2 min 0 min 732 W/m 16,1 km/h (3 Bft) 97,83 %
23.04.2021 15:52 15,3 C 20,0 C 11,7 C 51 % 1029,0 hPa 0,0 l/m 2 min 0 min 733 W/m 16,1 km/h (3 Bft) 97,87 %
23.04.2021 15:54 15,3 C 20,6 C 11,7 C 51 % 1028,9 hPa 0,0 l/m 2 min 0 min 734 W/m 16,1 km/h (3 Bft) 97,87 %
23.04.2021 15:56 15,3 C 20,6 C 11,7 C 51 % 1028,9 hPa 0,0 l/m 2 min 0 min 726 W/m 16,1 km/h (3 Bft) 95,74 %
23.04.2021 15:58 15,3 C 21,1 C 11,7 C 51 % 1028,8 hPa 0,0 l/m 2 min 0 min 722 W/m 12,9 km/h (3 Bft) 97,87 %
23.04.2021 16:00 15,4 C 21,1 C 11,7 C 51 % 1028,9 hPa 0,0 l/m 2 min 0 min 718 W/m 16,1 km/h (3 Bft) 97,87 %
23.04.2021 16:02 15,4 C 22,2 C 11,7 C 52 % 1028,8 hPa 0,0 l/m 2 min 0 min 706 W/m 12,9 km/h (3 Bft) 100,00 %
23.04.2021 16:04 15,5 C 21,7 C 12,3 C 51 % 1028,8 hPa 0,0 l/m 2 min 0 min 695 W/m 12,9 km/h (3 Bft) 97,87 %
23.04.2021 16:06 15,5 C 22,2 C 12,3 C 52 % 1028,8 hPa 0,0 l/m 2 min 0 min 690 W/m 9,7 km/h (2 Bft) 95,74 %
23.04.2021 16:08 15,6 C 21,7 C 12,3 C 52 % 1028,8 hPa 0,0 l/m 2 min 0 min 700 W/m 19,3 km/h (3 Bft) 95,74 %
23.04.2021 16:10 15,5 C 21,7 C 12,3 C 51 % 1028,8 hPa 0,0 l/m 2 min 0 min 706 W/m 16,1 km/h (3 Bft) 95,74 %
23.04.2021 16:12 15,6 C 22,2 C 12,3 C 52 % 1028,8 hPa 0,0 l/m 2 min 0 min 701 W/m 12,9 km/h (3 Bft) 95,74 %
23.04.2021 16:14 15,5 C 22,8 C 12,3 C 51 % 1028,7 hPa 0,0 l/m 2 min 0 min 697 W/m 19,3 km/h (3 Bft) 95,65 %
23.04.2021 16:16 15,5 C 23,3 C 12,8 C 51 % 1028,7 hPa 0,0 l/m 2 min 0 min 687 W/m 9,7 km/h (2 Bft) 95,74 %
23.04.2021 16:18 15,5 C 23,9 C 12,8 C 51 % 1028,7 hPa 0,0 l/m 2 min 0 min 682 W/m 9,7 km/h (2 Bft) 95,74 %
23.04.2021 16:20 15,5 C 23,3 C 12,8 C 52 % 1028,6 hPa 0,0 l/m 2 min 0 min 672 W/m 12,9 km/h (3 Bft) 95,74 %
23.04.2021 16:22 15,5 C 23,3 C 12,8 C 52 % 1028,6 hPa 0,0 l/m 2 min 0 min 671 W/m 16,1 km/h (3 Bft) 93,62 %
23.04.2021 16:24 15,5 C 23,9 C 12,8 C 52 % 1028,6 hPa 0,0 l/m 2 min 0 min 671 W/m 19,3 km/h (3 Bft) 95,74 %
23.04.2021 16:26 15,5 C 23,3 C 12,8 C 52 % 1028,6 hPa 0,0 l/m 2 min 0 min 665 W/m 16,1 km/h (3 Bft) 95,65 %
23.04.2021 16:28 15,5 C 23,3 C 12,8 C 52 % 1028,7 hPa 0,0 l/m 2 min 0 min 659 W/m 12,9 km/h (3 Bft) 95,74 %
23.04.2021 16:30 15,5 C 23,3 C 12,8 C 52 % 1028,6 hPa 0,0 l/m 2 min 0 min 656 W/m 6,4 km/h (2 Bft) 95,74 %
23.04.2021 16:32 15,6 C 23,9 C 12,8 C 53 % 1028,5 hPa 0,0 l/m 2 min 0 min 652 W/m 12,9 km/h (3 Bft) 95,74 %
23.04.2021 16:34 15,7 C 23,3 C 12,8 C 52 % 1028,5 hPa 0,0 l/m 2 min 0 min 645 W/m 22,5 km/h (4 Bft) 95,74 %
23.04.2021 16:36 15,7 C 23,3 C 12,8 C 52 % 1028,6 hPa 0,0 l/m 2 min 0 min 641 W/m 12,9 km/h (3 Bft) 95,65 %
23.04.2021 16:38 15,8 C 23,3 C 12,8 C 51 % 1028,6 hPa 0,0 l/m 2 min 0 min 638 W/m 12,9 km/h (3 Bft) 91,49 %
23.04.2021 16:40 15,6 C 22,8 C 12,8 C 51 % 1028,5 hPa 0,0 l/m 2 min 0 min 633 W/m 22,5 km/h (4 Bft) 97,87 %
23.04.2021 16:42 15,6 C 23,3 C 12,8 C 50 % 1028,4 hPa 0,0 l/m 2 min 0 min 629 W/m 9,7 km/h (2 Bft) 95,74 %
23.04.2021 16:44 15,6 C 23,3 C 12,3 C 51 % 1028,4 hPa 0,0 l/m 2 min 0 min 624 W/m 9,7 km/h (2 Bft) 97,87 %
23.04.2021 16:46 15,8 C 22,8 C 12,8 C 52 % 1028,4 hPa 0,0 l/m 2 min 0 min 618 W/m 12,9 km/h (3 Bft) 97,87 %
23.04.2021 16:48 15,8 C 22,8 C 12,8 C 52 % 1028,4 hPa 0,0 l/m 2 min 0 min 609 W/m 12,9 km/h (3 Bft) 97,87 %
23.04.2021 16:50 15,8 C 23,9 C 12,8 C 52 % 1028,4 hPa 0,0 l/m 2 min 0 min 604 W/m 12,9 km/h (3 Bft) 95,65 %
23.04.2021 16:52 15,8 C 24,4 C 12,8 C 51 % 1028,4 hPa 0,0 l/m 2 min 0 min 591 W/m 12,9 km/h (3 Bft) 97,87 %
23.04.2021 16:54 15,8 C 22,8 C 12,8 C 50 % 1028,4 hPa 0,0 l/m 2 min 0 min 587 W/m 16,1 km/h (3 Bft) 97,87 %
23.04.2021 16:56 15,8 C 22,2 C 12,8 C 50 % 1028,4 hPa 0,0 l/m 2 min 0 min 589 W/m 9,7 km/h (2 Bft) 95,74 %
23.04.2021 16:58 15,8 C 22,8 C 12,8 C 52 % 1028,3 hPa 0,0 l/m 2 min 0 min 584 W/m 6,4 km/h (2 Bft) 100,00 %
23.04.2021 17:00 15,9 C 23,3 C 13,4 C 52 % 1028,3 hPa 0,0 l/m 2 min 0 min 577 W/m 6,4 km/h (2 Bft) 100,00 %
23.04.2021 17:02 16,0 C 23,3 C 13,4 C 51 % 1028,4 hPa 0,0 l/m 2 min 0 min 572 W/m 16,1 km/h (3 Bft) 95,74 %
23.04.2021 17:04 16,0 C 22,8 C 13,4 C 51 % 1028,3 hPa 0,0 l/m 2 min 0 min 566 W/m 19,3 km/h (3 Bft) 95,74 %
23.04.2021 17:06 16,0 C 22,2 C 12,8 C 51 % 1028,3 hPa 0,0 l/m 2 min 0 min 563 W/m 12,9 km/h (3 Bft) 95,74 %
23.04.2021 17:08 16,0 C 22,8 C 13,4 C 51 % 1028,4 hPa 0,0 l/m 2 min 0 min 557 W/m 12,9 km/h (3 Bft) 97,87 %
23.04.2021 17:10 16,0 C 22,8 C 13,4 C 51 % 1028,3 hPa 0,0 l/m 2 min 0 min 552 W/m 16,1 km/h (3 Bft) 97,87 %
23.04.2021 17:12 16,1 C 22,2 C 13,4 C 51 % 1028,3 hPa 0,0 l/m 2 min 0 min 548 W/m 22,5 km/h (4 Bft) 93,48 %
23.04.2021 17:14 16,1 C 22,2 C 13,4 C 52 % 1028,3 hPa 0,0 l/m 2 min 0 min 540 W/m 16,1 km/h (3 Bft) 95,74 %
23.04.2021 17:16 16,0 C 21,7 C 12,8 C 51 % 1028,3 hPa 0,0 l/m 2 min 0 min 534 W/m 12,9 km/h (3 Bft) 95,74 %
23.04.2021 17:18 16,0 C 22,8 C 12,8 C 51 % 1028,3 hPa 0,0 l/m 2 min 0 min 530 W/m 16,1 km/h (3 Bft) 95,74 %
23.04.2021 17:20 16,0 C 22,2 C 12,8 C 52 % 1028,2 hPa 0,0 l/m 2 min 0 min 519 W/m 16,1 km/h (3 Bft) 97,87 %
23.04.2021 17:22 16,0 C 22,8 C 12,8 C 51 % 1028,2 hPa 0,0 l/m 2 min 0 min 517 W/m 9,7 km/h (2 Bft) 97,87 %
23.04.2021 17:24 16,0 C 22,8 C 13,4 C 52 % 1028,2 hPa 0,0 l/m 2 min 0 min 515 W/m 12,9 km/h (3 Bft) 95,65 %
23.04.2021 17:26 16,0 C 22,8 C 12,8 C 51 % 1028,2 hPa 0,0 l/m 2 min 0 min 508 W/m 9,7 km/h (2 Bft) 95,74 %
23.04.2021 17:28 16,1 C 22,8 C 13,4 C 51 % 1028,2 hPa 0,0 l/m 2 min 0 min 500 W/m 6,4 km/h (2 Bft) 97,87 %
23.04.2021 17:30 16,1 C 22,2 C 12,8 C 50 % 1028,2 hPa 0,0 l/m 2 min 0 min 495 W/m 16,1 km/h (3 Bft) 97,87 %
23.04.2021 17:32 16,0 C 22,2 C 12,8 C 51 % 1028,2 hPa 0,0 l/m 2 min 0 min 481 W/m 16,1 km/h (3 Bft) 97,87 %
23.04.2021 17:34 15,9 C 22,2 C 12,8 C 51 % 1028,1 hPa 0,0 l/m 2 min 0 min 478 W/m 12,9 km/h (3 Bft) 97,87 %
23.04.2021 17:36 15,8 C 21,1 C 12,8 C 51 % 1028,2 hPa 0,0 l/m 2 min 0 min 479 W/m 19,3 km/h (3 Bft) 97,83 %
23.04.2021 17:38 15,7 C 21,1 C 12,8 C 52 % 1028,1 hPa 0,0 l/m 2 min 0 min 476 W/m 22,5 km/h (4 Bft) 95,74 %
23.04.2021 17:40 15,6 C 21,1 C 12,8 C 52 % 1028,1 hPa 0,0 l/m 2 min 0 min 465 W/m 12,9 km/h (3 Bft) 97,87 %
23.04.2021 17:42 15,6 C 21,1 C 12,8 C 52 % 1028,0 hPa 0,0 l/m 2 min 0 min 462 W/m 12,9 km/h (3 Bft) 97,87 %
23.04.2021 17:44 15,6 C 20,6 C 12,8 C 52 % 1028,0 hPa 0,0 l/m 2 min 0 min 456 W/m 12,9 km/h (3 Bft) 97,87 %
23.04.2021 17:46 15,5 C 20,6 C 12,8 C 52 % 1028,0 hPa 0,0 l/m 2 min 0 min 449 W/m 16,1 km/h (3 Bft) 100,00 %
23.04.2021 17:48 15,6 C 21,1 C 12,8 C 53 % 1028,0 hPa 0,0 l/m 2 min 0 min 441 W/m 3,2 km/h (1 Bft) 100,00 %
23.04.2021 17:50 15,8 C 21,7 C 12,8 C 53 % 1027,9 hPa 0,0 l/m 2 min 0 min 430 W/m 6,4 km/h (2 Bft) 100,00 %
23.04.2021 17:52 15,9 C 21,7 C 12,8 C 52 % 1028,0 hPa 0,0 l/m 2 min 0 min 425 W/m 12,9 km/h (3 Bft) 97,87 %
23.04.2021 17:54 16,0 C 21,1 C 12,8 C 53 % 1028,0 hPa 0,0 l/m 2 min 0 min 415 W/m 12,9 km/h (3 Bft) 100,00 %
23.04.2021 17:56 16,1 C 21,7 C 12,8 C 52 % 1027,9 hPa 0,0 l/m 2 min 0 min 407 W/m 6,4 km/h (2 Bft) 100,00 %
23.04.2021 17:58 16,1 C 21,7 C 12,8 C 51 % 1028,0 hPa 0,0 l/m 2 min 0 min 411 W/m 12,9 km/h (3 Bft) 100,00 %
23.04.2021 18:00 16,0 C 21,1 C 12,8 C 51 % 1027,9 hPa 0,0 l/m 2 min 0 min 405 W/m 16,1 km/h (3 Bft) 100,00 %
23.04.2021 18:02 16,0 C 21,7 C 12,8 C 52 % 1027,9 hPa 0,0 l/m 2 min 0 min 400 W/m 9,7 km/h (2 Bft) 100,00 %
23.04.2021 18:04 15,9 C 22,2 C 13,4 C 52 % 1028,0 hPa 0,0 l/m 2 min 0 min 396 W/m 12,9 km/h (3 Bft) 100,00 %
23.04.2021 18:08 15,7 C 22,2 C 13,4 C 53 % 1027,9 hPa 0,0 l/m 4 min 0 min 384 W/m 9,7 km/h (2 Bft) 98,94 %
23.04.2021 18:10 15,7 C 22,2 C 12,8 C 53 % 1027,9 hPa 0,0 l/m 2 min 0 min 368 W/m 12,9 km/h (3 Bft) 100,00 %
23.04.2021 18:12 15,6 C 21,7 C 12,8 C 52 % 1027,9 hPa 0,0 l/m 2 min 0 min 366 W/m 12,9 km/h (3 Bft) 100,00 %
23.04.2021 18:14 15,5 C 21,1 C 12,8 C 52 % 1027,9 hPa 0,0 l/m 2 min 0 min 357 W/m 12,9 km/h (3 Bft) 100,00 %
23.04.2021 18:16 15,6 C 21,1 C 12,8 C 53 % 1027,9 hPa 0,0 l/m 2 min 0 min 346 W/m 6,4 km/h (2 Bft) 100,00 %
23.04.2021 18:18 15,8 C 21,7 C 12,8 C 53 % 1027,9 hPa 0,0 l/m 2 min 0 min 352 W/m 12,9 km/h (3 Bft) 100,00 %
23.04.2021 18:20 15,8 C 21,1 C 12,8 C 52 % 1027,9 hPa 0,0 l/m 2 min 0 min 350 W/m 12,9 km/h (3 Bft) 100,00 %
23.04.2021 18:22 15,8 C 21,1 C 12,8 C 52 % 1027,9 hPa 0,0 l/m 2 min 0 min 344 W/m 19,3 km/h (3 Bft) 100,00 %
23.04.2021 18:24 15,8 C 21,1 C 12,8 C 52 % 1027,9 hPa 0,0 l/m 2 min 0 min 335 W/m 12,9 km/h (3 Bft) 100,00 %
23.04.2021 18:26 15,8 C 21,1 C 12,8 C 52 % 1027,9 hPa 0,0 l/m 2 min 0 min 328 W/m 9,7 km/h (2 Bft) 100,00 %
23.04.2021 18:30 15,9 C 21,7 C 12,8 C 52 % 1027,8 hPa 0,0 l/m 4 min 0 min 321 W/m 9,7 km/h (2 Bft) 100,00 %
23.04.2021 18:35 15,8 C 21,7 C 12,3 C 52 % 1027,8 hPa 0,0 l/m 5 min 0 min 304 W/m 9,7 km/h (2 Bft) 100,00 %
23.04.2021 18:40 15,3 C 16,7 C 11,7 C 53 % 1027,7 hPa 0,0 l/m 5 min 0 min 284 W/m 16,1 km/h (3 Bft) 100,00 %
23.04.2021 18:44 15,0 C 15,6 C 11,7 C 54 % 1027,7 hPa 0,0 l/m 4 min 0 min 264 W/m 6,4 km/h (2 Bft) 97,44 %
23.04.2021 18:46 14,9 C 15,0 C 11,7 C 54 % 1027,7 hPa 0,0 l/m 2 min 0 min 257 W/m 16,1 km/h (3 Bft) 97,14 %
23.04.2021 18:48 14,8 C 15,0 C 11,1 C 54 % 1027,7 hPa 0,0 l/m 2 min 0 min 250 W/m 16,1 km/h (3 Bft) 100,00 %
23.04.2021 18:50 14,6 C 14,4 C 11,1 C 53 % 1027,7 hPa 0,0 l/m 2 min 0 min 244 W/m 12,9 km/h (3 Bft) 100,00 %
23.04.2021 18:52 14,5 C 14,4 C 11,1 C 53 % 1027,7 hPa 0,0 l/m 2 min 0 min 237 W/m 6,4 km/h (2 Bft) 97,87 %
23.04.2021 18:54 14,5 C 13,9 C 11,1 C 54 % 1027,7 hPa 0,0 l/m 2 min 0 min 189 W/m 12,9 km/h (3 Bft) 100,00 %
23.04.2021 18:56 14,4 C 13,9 C 11,1 C 54 % 1027,6 hPa 0,0 l/m 0 min 0 min 89 W/m 16,1 km/h (3 Bft) 100,00 %
23.04.2021 18:58 14,2 C 13,9 C 10,6 C 54 % 1027,6 hPa 0,0 l/m 0 min 0 min 61 W/m 6,4 km/h (2 Bft) 97,87 %
23.04.2021 19:00 14,2 C 13,3 C 10,6 C 54 % 1027,6 hPa 0,0 l/m 0 min 0 min 56 W/m 12,9 km/h (3 Bft) 95,74 %
23.04.2021 19:05 13,9 C 13,3 C 10,6 C 54 % 1027,6 hPa 0,0 l/m 0 min 0 min 54 W/m 6,4 km/h (2 Bft) 98,11 %
23.04.2021 19:06 13,8 C 13,3 C 10,6 C 55 % 1027,6 hPa 0,0 l/m 0 min 0 min 54 W/m 6,4 km/h (2 Bft) 86,96 %
23.04.2021 19:08 13,7 C 13,3 C 10,6 C 55 % 1027,6 hPa 0,0 l/m 0 min 0 min 53 W/m 9,7 km/h (2 Bft) 95,74 %
23.04.2021 19:10 13,6 C 13,3 C 10,6 C 56 % 1027,7 hPa 0,0 l/m 0 min 0 min 52 W/m 9,7 km/h (2 Bft) 95,74 %
23.04.2021 19:12 13,6 C 13,3 C 10,0 C 55 % 1027,6 hPa 0,0 l/m 0 min 0 min 51 W/m 9,7 km/h (2 Bft) 95,74 %
23.04.2021 19:14 13,5 C 12,8 C 10,0 C 55 % 1027,6 hPa 0,0 l/m 0 min 0 min 50 W/m 16,1 km/h (3 Bft) 93,48 %
23.04.2021 19:16 13,4 C 12,8 C 10,0 C 56 % 1027,6 hPa 0,0 l/m 0 min 0 min 49 W/m 9,7 km/h (2 Bft) 95,74 %
23.04.2021 19:18 13,4 C 12,8 C 10,0 C 56 % 1027,6 hPa 0,0 l/m 0 min 0 min 48 W/m 6,4 km/h (2 Bft) 93,62 %
23.04.2021 19:20 13,3 C 12,8 C 10,0 C 57 % 1027,6 hPa 0,0 l/m 0 min 0 min 47 W/m 9,7 km/h (2 Bft) 95,74 %
23.04.2021 19:22 13,2 C 12,8 C 10,0 C 58 % 1027,6 hPa 0,0 l/m 0 min 0 min 47 W/m 9,7 km/h (2 Bft) 95,74 %
23.04.2021 19:24 13,1 C 12,8 C 10,0 C 57 % 1027,6 hPa 0,0 l/m 0 min 0 min 46 W/m 12,9 km/h (3 Bft) 95,65 %
23.04.2021 19:26 13,1 C 12,8 C 10,0 C 57 % 1027,6 hPa 0,0 l/m 0 min 0 min 46 W/m 19,3 km/h (3 Bft) 95,74 %
23.04.2021 19:28 13,0 C 12,2 C 10,0 C 57 % 1027,6 hPa 0,0 l/m 0 min 0 min 44 W/m 12,9 km/h (3 Bft) 95,74 %
23.04.2021 19:30 13,0 C 12,2 C 10,0 C 58 % 1027,6 hPa 0,0 l/m 0 min 0 min 42 W/m 9,7 km/h (2 Bft) 95,74 %
23.04.2021 19:32 13,0 C 12,2 C 9,5 C 58 % 1027,6 hPa 0,0 l/m 0 min 0 min 42 W/m 3,2 km/h (1 Bft) 97,87 %
23.04.2021 19:34 12,9 C 12,2 C 9,5 C 58 % 1027,5 hPa 0,0 l/m 0 min 0 min 40 W/m 6,4 km/h (2 Bft) 97,87 %
23.04.2021 19:36 12,9 C 12,2 C 9,5 C 58 % 1027,5 hPa 0,0 l/m 0 min 0 min 39 W/m 12,9 km/h (3 Bft) 95,65 %
23.04.2021 19:38 12,9 C 12,2 C 9,5 C 58 % 1027,5 hPa 0,0 l/m 0 min 0 min 39 W/m 12,9 km/h (3 Bft) 97,87 %
23.04.2021 19:40 12,8 C 12,2 C 9,5 C 58 % 1027,6 hPa 0,0 l/m 0 min 0 min 37 W/m 6,4 km/h (2 Bft) 97,87 %
23.04.2021 19:42 12,7 C 12,2 C 9,5 C 59 % 1027,5 hPa 0,0 l/m 0 min 0 min 37 W/m 9,7 km/h (2 Bft) 97,87 %
23.04.2021 19:44 12,7 C 12,2 C 9,5 C 58 % 1027,6 hPa 0,0 l/m 0 min 0 min 35 W/m 6,4 km/h (2 Bft) 97,87 %
23.04.2021 19:46 12,6 C 12,2 C 9,5 C 59 % 1027,6 hPa 0,0 l/m 0 min 0 min 34 W/m 3,2 km/h (1 Bft) 97,87 %
23.04.2021 19:48 12,6 C 12,2 C 9,5 C 59 % 1027,6 hPa 0,0 l/m 0 min 0 min 33 W/m 9,7 km/h (2 Bft) 97,83 %
23.04.2021 19:50 12,6 C 11,7 C 9,5 C 60 % 1027,6 hPa 0,0 l/m 0 min 0 min 33 W/m 6,4 km/h (2 Bft) 93,62 %
23.04.2021 19:52 12,6 C 11,7 C 9,5 C 60 % 1027,6 hPa 0,0 l/m 0 min 0 min 32 W/m 9,7 km/h (2 Bft) 97,87 %
23.04.2021 19:54 12,5 C 11,7 C 9,5 C 60 % 1027,6 hPa 0,0 l/m 0 min 0 min 31 W/m 6,4 km/h (2 Bft) 95,74 %
23.04.2021 19:56 12,5 C 11,7 C 8,9 C 60 % 1027,6 hPa 0,0 l/m 0 min 0 min 30 W/m 12,9 km/h (3 Bft) 95,74 %
23.04.2021 19:58 12,4 C 11,7 C 8,9 C 60 % 1027,5 hPa 0,0 l/m 0 min 0 min 29 W/m 12,9 km/h (3 Bft) 97,87 %
23.04.2021 20:00 12,4 C 11,7 C 8,9 C 60 % 1027,6 hPa 0,0 l/m 0 min 0 min 28 W/m 9,7 km/h (2 Bft) 95,65 %
23.04.2021 20:02 12,4 C 11,7 C 8,9 C 60 % 1027,6 hPa 0,0 l/m 0 min 0 min 27 W/m 12,9 km/h (3 Bft) 97,87 %
23.04.2021 20:04 12,3 C 11,7 C 8,9 C 60 % 1027,5 hPa 0,0 l/m 0 min 0 min 26 W/m 3,2 km/h (1 Bft) 95,74 %
23.04.2021 20:06 12,3 C 11,7 C 8,9 C 60 % 1027,6 hPa 0,0 l/m 0 min 0 min 25 W/m 3,2 km/h (1 Bft) 97,87 %
23.04.2021 20:08 12,2 C 11,1 C 8,9 C 61 % 1027,5 hPa 0,0 l/m 0 min 0 min 24 W/m 6,4 km/h (2 Bft) 97,87 %
23.04.2021 20:10 12,2 C 11,1 C 8,9 C 61 % 1027,5 hPa 0,0 l/m 0 min 0 min 23 W/m 6,4 km/h (2 Bft) 97,87 %
23.04.2021 20:12 12,1 C 11,1 C 8,9 C 61 % 1027,5 hPa 0,0 l/m 0 min 0 min 22 W/m 12,9 km/h (3 Bft) 97,83 %
23.04.2021 20:14 12,1 C 11,1 C 8,9 C 61 % 1027,5 hPa 0,0 l/m 0 min 0 min 21 W/m 6,4 km/h (2 Bft) 97,87 %
23.04.2021 20:16 12,1 C 11,1 C 8,9 C 61 % 1027,6 hPa 0,0 l/m 0 min 0 min 19 W/m 12,9 km/h (3 Bft) 95,74 %
23.04.2021 20:18 12,1 C 11,1 C 8,9 C 61 % 1027,5 hPa 0,0 l/m 0 min 0 min 19 W/m 6,4 km/h (2 Bft) 95,74 %
23.04.2021 20:20 12,0 C 11,1 C 8,4 C 62 % 1027,5 hPa 0,0 l/m 0 min 0 min 18 W/m 6,4 km/h (2 Bft) 97,87 %
23.04.2021 20:22 12,0 C 11,1 C 8,4 C 62 % 1027,6 hPa 0,0 l/m 0 min 0 min 16 W/m 6,4 km/h (2 Bft) 97,87 %
23.04.2021 20:24 12,0 C 10,6 C 8,4 C 62 % 1027,6 hPa 0,0 l/m 0 min 0 min 15 W/m 3,2 km/h (1 Bft) 97,83 %
23.04.2021 20:26 11,9 C 10,6 C 8,4 C 62 % 1027,5 hPa 0,0 l/m 0 min 0 min 13 W/m 19,3 km/h (3 Bft) 97,87 %
23.04.2021 20:28 11,9 C 10,6 C 8,4 C 62 % 1027,5 hPa 0,0 l/m 0 min 0 min 12 W/m 12,9 km/h (3 Bft) 95,74 %
23.04.2021 20:30 11,8 C 10,6 C 8,4 C 62 % 1027,5 hPa 0,0 l/m 0 min 0 min 10 W/m 6,4 km/h (2 Bft) 97,87 %
23.04.2021 20:32 11,8 C 10,6 C 8,4 C 62 % 1027,5 hPa 0,0 l/m 0 min 0 min 8 W/m 9,7 km/h (2 Bft) 97,87 %
23.04.2021 20:34 11,8 C 10,6 C 8,4 C 62 % 1027,6 hPa 0,0 l/m 0 min 0 min 7 W/m 12,9 km/h (3 Bft) 95,74 %
23.04.2021 20:36 11,7 C 10,6 C 8,4 C 63 % 1027,5 hPa 0,0 l/m 0 min 0 min 6 W/m 9,7 km/h (2 Bft) 97,83 %
23.04.2021 20:38 11,6 C 10,6 C 8,4 C 63 % 1027,6 hPa 0,0 l/m 0 min 0 min 5 W/m 9,7 km/h (2 Bft) 97,87 %
23.04.2021 20:40 11,6 C 10,6 C 8,4 C 63 % 1027,6 hPa 0,0 l/m 0 min 0 min 5 W/m 6,4 km/h (2 Bft) 97,87 %
23.04.2021 20:42 11,5 C 10,6 C 8,4 C 63 % 1027,6 hPa 0,0 l/m 0 min 0 min 0 W/m 6,4 km/h (2 Bft) 95,74 %
23.04.2021 20:44 11,5 C 10,6 C 7,8 C 64 % 1027,6 hPa 0,0 l/m 0 min 0 min 0 W/m 6,4 km/h (2 Bft) 93,62 %
23.04.2021 20:46 11,4 C 10,0 C 7,8 C 64 % 1027,7 hPa 0,0 l/m 0 min 0 min 0 W/m 12,9 km/h (3 Bft) 95,74 %
23.04.2021 20:48 11,4 C 10,0 C 7,8 C 64 % 1027,7 hPa 0,0 l/m 0 min 0 min 0 W/m 12,9 km/h (3 Bft) 95,65 %
23.04.2021 20:50 11,3 C 10,0 C 7,8 C 64 % 1027,7 hPa 0,0 l/m 0 min 0 min 0 W/m 9,7 km/h (2 Bft) 95,74 %
23.04.2021 20:52 11,3 C 10,0 C 7,8 C 64 % 1027,7 hPa 0,0 l/m 0 min 0 min 0 W/m 6,4 km/h (2 Bft) 95,74 %
23.04.2021 20:54 11,3 C 10,0 C 7,8 C 64 % 1027,8 hPa 0,0 l/m 0 min 0 min 0 W/m 9,7 km/h (2 Bft) 95,74 %
23.04.2021 20:56 11,3 C 10,0 C 7,8 C 64 % 1027,7 hPa 0,0 l/m 0 min 0 min 0 W/m 3,2 km/h (1 Bft) 95,74 %
23.04.2021 20:58 11,2 C 10,0 C 7,8 C 64 % 1027,8 hPa 0,0 l/m 0 min 0 min 0 W/m 6,4 km/h (2 Bft) 95,74 %
23.04.2021 21:00 11,2 C 10,0 C 7,8 C 65 % 1027,8 hPa 0,0 l/m 0 min 0 min 0 W/m 9,7 km/h (2 Bft) 95,65 %
23.04.2021 21:02 11,1 C 10,0 C 7,8 C 65 % 1027,8 hPa 0,0 l/m 0 min 0 min 0 W/m 3,2 km/h (1 Bft) 95,74 %
23.04.2021 21:04 11,1 C 9,4 C 7,3 C 65 % 1027,8 hPa 0,0 l/m 0 min 0 min 0 W/m 0,0 km/h (0 Bft) 97,87 %
23.04.2021 21:06 11,0 C 9,4 C 7,3 C 65 % 1027,9 hPa 0,0 l/m 0 min 0 min 0 W/m 6,4 km/h (2 Bft) 93,62 %
23.04.2021 21:08 11,0 C 9,4 C 7,3 C 65 % 1027,8 hPa 0,0 l/m 0 min 0 min 0 W/m 9,7 km/h (2 Bft) 97,87 %
23.04.2021 21:10 11,0 C 9,4 C 7,3 C 66 % 1027,9 hPa 0,0 l/m 0 min 0 min 0 W/m 6,4 km/h (2 Bft) 95,74 %
23.04.2021 21:12 10,9 C 9,4 C 7,3 C 66 % 1027,9 hPa 0,0 l/m 0 min 0 min 0 W/m 6,4 km/h (2 Bft) 95,65 %
23.04.2021 21:14 10,9 C 9,4 C 7,3 C 66 % 1027,8 hPa 0,0 l/m 0 min 0 min 0 W/m 3,2 km/h (1 Bft) 95,74 %
23.04.2021 21:16 10,9 C 9,4 C 7,3 C 65 % 1027,8 hPa 0,0 l/m 0 min 0 min 0 W/m 3,2 km/h (1 Bft) 97,87 %
23.04.2021 21:18 10,8 C 9,4 C 7,3 C 66 % 1027,8 hPa 0,0 l/m 0 min 0 min 0 W/m 9,7 km/h (2 Bft) 100,00 %
23.04.2021 21:20 10,8 C 9,4 C 7,3 C 66 % 1027,9 hPa 0,0 l/m 0 min 0 min 0 W/m 6,4 km/h (2 Bft) 100,00 %
23.04.2021 21:22 10,7 C 9,4 C 6,7 C 66 % 1027,8 hPa 0,0 l/m 0 min 0 min 0 W/m 6,4 km/h (2 Bft) 100,00 %
23.04.2021 21:24 10,6 C 9,4 C 6,7 C 67 % 1027,9 hPa 0,0 l/m 0 min 0 min 0 W/m 9,7 km/h (2 Bft) 100,00 %
23.04.2021 21:26 10,6 C 8,9 C 6,7 C 67 % 1027,8 hPa 0,0 l/m 0 min 0 min 0 W/m 9,7 km/h (2 Bft) 97,87 %
23.04.2021 21:28 10,5 C 8,9 C 6,7 C 67 % 1027,9 hPa 0,0 l/m 0 min 0 min 0 W/m 6,4 km/h (2 Bft) 97,87 %
23.04.2021 21:30 10,5 C 8,9 C 6,7 C 67 % 1027,8 hPa 0,0 l/m 0 min 0 min 0 W/m 9,7 km/h (2 Bft) 100,00 %
23.04.2021 21:32 10,5 C 8,9 C 6,7 C 67 % 1027,9 hPa 0,0 l/m 0 min 0 min 0 W/m 6,4 km/h (2 Bft) 100,00 %
23.04.2021 21:34 10,4 C 8,9 C 6,7 C 67 % 1027,9 hPa 0,0 l/m 0 min 0 min 0 W/m 6,4 km/h (2 Bft) 97,83 %
23.04.2021 21:36 10,4 C 8,9 C 6,7 C 67 % 1027,9 hPa 0,0 l/m 0 min 0 min 0 W/m 6,4 km/h (2 Bft) 100,00 %
23.04.2021 21:38 10,4 C 8,9 C 6,7 C 67 % 1028,0 hPa 0,0 l/m 0 min 0 min 0 W/m 3,2 km/h (1 Bft) 100,00 %
23.04.2021 21:40 10,3 C 8,9 C 6,7 C 67 % 1028,0 hPa 0,0 l/m 0 min 0 min 0 W/m 9,7 km/h (2 Bft) 100,00 %
23.04.2021 21:42 10,3 C 8,9 C 6,7 C 67 % 1028,0 hPa 0,0 l/m 0 min 0 min 0 W/m 12,9 km/h (3 Bft) 100,00 %
23.04.2021 21:44 10,2 C 8,9 C 6,7 C 67 % 1028,0 hPa 0,0 l/m 0 min 0 min 0 W/m 9,7 km/h (2 Bft) 100,00 %
23.04.2021 21:46 10,1 C 8,9 C 6,7 C 67 % 1028,0 hPa 0,0 l/m 0 min 0 min 0 W/m 12,9 km/h (3 Bft) 100,00 %
23.04.2021 21:48 10,1 C 8,9 C 6,7 C 68 % 1028,0 hPa 0,0 l/m 0 min 0 min 0 W/m 3,2 km/h (1 Bft) 100,00 %
23.04.2021 21:50 10,1 C 8,9 C 6,7 C 68 % 1028,0 hPa 0,0 l/m 0 min 0 min 0 W/m 6,4 km/h (2 Bft) 100,00 %
23.04.2021 21:52 10,1 C 8,9 C 6,7 C 68 % 1028,0 hPa 0,0 l/m 0 min 0 min 0 W/m 9,7 km/h (2 Bft) 100,00 %
23.04.2021 21:54 10,0 C 8,9 C 6,7 C 68 % 1028,0 hPa 0,0 l/m 0 min 0 min 0 W/m 6,4 km/h (2 Bft) 100,00 %
23.04.2021 21:56 10,0 C 8,9 C 6,7 C 68 % 1028,0 hPa 0,0 l/m 0 min 0 min 0 W/m 3,2 km/h (1 Bft) 100,00 %
23.04.2021 21:58 10,0 C 8,9 C 6,7 C 68 % 1028,0 hPa 0,0 l/m 0 min 0 min 0 W/m 9,7 km/h (2 Bft) 100,00 %
23.04.2021 22:00 9,9 C 8,9 C 6,7 C 68 % 1028,0 hPa 0,0 l/m 0 min 0 min 0 W/m 9,7 km/h (2 Bft) 100,00 %
23.04.2021 22:02 9,9 C 8,9 C 6,7 C 68 % 1028,0 hPa 0,0 l/m 0 min 0 min 0 W/m 9,7 km/h (2 Bft) 100,00 %
23.04.2021 22:04 9,9 C 8,3 C 6,7 C 69 % 1028,0 hPa 0,0 l/m 0 min 0 min 0 W/m 9,7 km/h (2 Bft) 100,00 %
23.04.2021 22:06 9,9 C 8,9 C 6,7 C 69 % 1027,9 hPa 0,0 l/m 0 min 0 min 0 W/m 6,4 km/h (2 Bft) 100,00 %
23.04.2021 22:08 9,8 C 8,9 C 6,7 C 69 % 1028,0 hPa 0,0 l/m 0 min 0 min 0 W/m 12,9 km/h (3 Bft) 97,87 %
23.04.2021 22:10 9,8 C 8,9 C 6,7 C 69 % 1028,0 hPa 0,0 l/m 0 min 0 min 0 W/m 12,9 km/h (3 Bft) 100,00 %
23.04.2021 22:12 9,8 C 8,3 C 6,7 C 68 % 1028,0 hPa 0,0 l/m 0 min 0 min 0 W/m 3,2 km/h (1 Bft) 97,87 %
23.04.2021 22:14 9,8 C 8,3 C 6,7 C 69 % 1028,0 hPa 0,0 l/m 0 min 0 min 0 W/m 3,2 km/h (1 Bft) 95,74 %
23.04.2021 22:16 9,7 C 8,3 C 6,1 C 69 % 1027,9 hPa 0,0 l/m 0 min 0 min 0 W/m 3,2 km/h (1 Bft) 97,87 %
23.04.2021 22:18 9,7 C 8,3 C 6,1 C 69 % 1028,0 hPa 0,0 l/m 0 min 0 min 0 W/m 6,4 km/h (2 Bft) 97,87 %
23.04.2021 22:20 9,7 C 8,3 C 6,1 C 69 % 1027,9 hPa 0,0 l/m 0 min 0 min 0 W/m 3,2 km/h (1 Bft) 97,87 %
23.04.2021 22:22 9,6 C 8,3 C 6,1 C 69 % 1027,9 hPa 0,0 l/m 0 min 0 min 0 W/m 3,2 km/h (1 Bft) 97,83 %
23.04.2021 22:24 9,6 C 8,3 C 6,1 C 69 % 1027,9 hPa 0,0 l/m 0 min 0 min 0 W/m 6,4 km/h (2 Bft) 95,74 %
23.04.2021 22:26 9,6 C 8,3 C 6,1 C 70 % 1027,9 hPa 0,0 l/m 0 min 0 min 0 W/m 6,4 km/h (2 Bft) 97,87 %
23.04.2021 22:28 9,5 C 8,3 C 6,1 C 70 % 1027,9 hPa 0,0 l/m 0 min 0 min 0 W/m 9,7 km/h (2 Bft) 97,87 %
23.04.2021 22:30 9,5 C 8,3 C 6,1 C 70 % 1027,9 hPa 0,0 l/m 0 min 0 min 0 W/m 12,9 km/h (3 Bft) 95,74 %
23.04.2021 22:32 9,5 C 8,3 C 6,1 C 70 % 1027,9 hPa 0,0 l/m 0 min 0 min 0 W/m 9,7 km/h (2 Bft) 95,74 %
23.04.2021 22:34 9,5 C 8,3 C 6,1 C 70 % 1027,9 hPa 0,0 l/m 0 min 0 min 0 W/m 3,2 km/h (1 Bft) 97,87 %
23.04.2021 22:36 9,4 C 8,3 C 6,1 C 70 % 1027,9 hPa 0,0 l/m 0 min 0 min 0 W/m 9,7 km/h (2 Bft) 93,48 %
23.04.2021 22:38 9,4 C 8,3 C 6,1 C 70 % 1027,9 hPa 0,0 l/m 0 min 0 min 0 W/m 12,9 km/h (3 Bft) 95,74 %
23.04.2021 22:40 9,4 C 8,3 C 6,1 C 70 % 1027,9 hPa 0,0 l/m 0 min 0 min 0 W/m 9,7 km/h (2 Bft) 93,62 %
23.04.2021 22:42 9,4 C 8,3 C 6,1 C 70 % 1027,8 hPa 0,0 l/m 0 min 0 min 0 W/m 3,2 km/h (1 Bft) 95,74 %
23.04.2021 22:44 9,4 C 8,3 C 6,1 C 70 % 1027,8 hPa 0,0 l/m 0 min 0 min 0 W/m 12,9 km/h (3 Bft) 95,74 %
23.04.2021 22:46 9,3 C 8,3 C 6,1 C 70 % 1027,8 hPa 0,0 l/m 0 min 0 min 0 W/m 3,2 km/h (1 Bft) 95,65 %
23.04.2021 22:48 9,3 C 8,3 C 6,1 C 70 % 1027,8 hPa 0,0 l/m 0 min 0 min 0 W/m 3,2 km/h (1 Bft) 93,62 %
23.04.2021 22:50 9,3 C 8,3 C 6,1 C 70 % 1027,8 hPa 0,0 l/m 0 min 0 min 0 W/m 6,4 km/h (2 Bft) 95,74 %
23.04.2021 22:52 9,3 C 8,3 C 6,1 C 71 % 1027,8 hPa 0,0 l/m 0 min 0 min 0 W/m 3,2 km/h (1 Bft) 95,74 %
23.04.2021 22:54 9,2 C 8,3 C 6,1 C 71 % 1027,8 hPa 0,0 l/m 0 min 0 min 0 W/m 3,2 km/h (1 Bft) 95,74 %
23.04.2021 22:56 9,2 C 7,8 C 6,1 C 71 % 1027,8 hPa 0,0 l/m 0 min 0 min 0 W/m 9,7 km/h (2 Bft) 95,74 %
23.04.2021 22:58 9,1 C 8,3 C 6,1 C 71 % 1027,8 hPa 0,0 l/m 0 min 0 min 0 W/m 6,4 km/h (2 Bft) 93,48 %
23.04.2021 23:00 9,1 C 8,3 C 6,1 C 71 % 1027,8 hPa 0,0 l/m 0 min 0 min 0 W/m 9,7 km/h (2 Bft) 95,74 %
23.04.2021 23:02 9,1 C 7,8 C 5,6 C 71 % 1027,8 hPa 0,0 l/m 0 min 0 min 0 W/m 3,2 km/h (1 Bft) 93,62 %
23.04.2021 23:04 9,1 C 7,8 C 5,6 C 71 % 1027,8 hPa 0,0 l/m 0 min 0 min 0 W/m 3,2 km/h (1 Bft) 93,62 %
23.04.2021 23:06 9,1 C 7,8 C 5,6 C 71 % 1027,8 hPa 0,0 l/m 0 min 0 min 0 W/m 3,2 km/h (1 Bft) 95,74 %
23.04.2021 23:08 9,1 C 7,8 C 5,6 C 71 % 1027,8 hPa 0,0 l/m 0 min 0 min 0 W/m 3,2 km/h (1 Bft) 93,62 %
23.04.2021 23:10 9,0 C 7,8 C 5,6 C 71 % 1027,8 hPa 0,0 l/m 0 min 0 min 0 W/m 9,7 km/h (2 Bft) 97,83 %
23.04.2021 23:12 9,0 C 7,8 C 5,6 C 72 % 1027,8 hPa 0,0 l/m 0 min 0 min 0 W/m 9,7 km/h (2 Bft) 97,87 %
23.04.2021 23:14 9,0 C 7,8 C 5,6 C 71 % 1027,8 hPa 0,0 l/m 0 min 0 min 0 W/m 9,7 km/h (2 Bft) 97,87 %
23.04.2021 23:16 9,0 C 7,8 C 5,6 C 71 % 1027,8 hPa 0,0 l/m 0 min 0 min 0 W/m 6,4 km/h (2 Bft) 100,00 %
23.04.2021 23:18 9,0 C 7,8 C 5,6 C 72 % 1027,8 hPa 0,0 l/m 0 min 0 min 0 W/m 6,4 km/h (2 Bft) 100,00 %
23.04.2021 23:20 8,9 C 7,8 C 5,6 C 72 % 1027,8 hPa 0,0 l/m 0 min 0 min 0 W/m 6,4 km/h (2 Bft) 100,00 %
23.04.2021 23:22 8,9 C 7,8 C 5,6 C 72 % 1027,8 hPa 0,0 l/m 0 min 0 min 0 W/m 6,4 km/h (2 Bft) 97,83 %
23.04.2021 23:24 8,9 C 7,8 C 5,6 C 72 % 1027,8 hPa 0,0 l/m 0 min 0 min 0 W/m 6,4 km/h (2 Bft) 97,87 %
23.04.2021 23:26 8,9 C 7,8 C 5,6 C 72 % 1027,8 hPa 0,0 l/m 0 min 0 min 0 W/m 6,4 km/h (2 Bft) 100,00 %
23.04.2021 23:28 8,9 C 7,8 C 5,6 C 72 % 1027,8 hPa 0,0 l/m 0 min 0 min 0 W/m 3,2 km/h (1 Bft) 100,00 %
23.04.2021 23:30 8,9 C 7,8 C 5,6 C 72 % 1027,8 hPa 0,0 l/m 0 min 0 min 0 W/m 6,4 km/h (2 Bft) 97,87 %
23.04.2021 23:32 8,9 C 7,8 C 5,6 C 72 % 1027,8 hPa 0,0 l/m 0 min 0 min 0 W/m 6,4 km/h (2 Bft) 100,00 %
23.04.2021 23:34 8,8 C 7,8 C 5,6 C 72 % 1027,8 hPa 0,0 l/m 0 min 0 min 0 W/m 3,2 km/h (1 Bft) 100,00 %
23.04.2021 23:36 8,8 C 7,8 C 5,6 C 72 % 1027,8 hPa 0,0 l/m 0 min 0 min 0 W/m 6,4 km/h (2 Bft) 97,83 %
23.04.2021 23:38 8,8 C 7,8 C 5,6 C 72 % 1027,8 hPa 0,0 l/m 0 min 0 min 0 W/m 12,9 km/h (3 Bft) 95,74 %
23.04.2021 23:40 8,8 C 7,8 C 5,6 C 72 % 1027,8 hPa 0,0 l/m 0 min 0 min 0 W/m 6,4 km/h (2 Bft) 100,00 %
23.04.2021 23:42 8,7 C 7,8 C 5,6 C 72 % 1027,8 hPa 0,0 l/m 0 min 0 min 0 W/m 6,4 km/h (2 Bft) 100,00 %
23.04.2021 23:44 8,7 C 7,8 C 5,6 C 72 % 1027,8 hPa 0,0 l/m 0 min 0 min 0 W/m 6,4 km/h (2 Bft) 100,00 %
23.04.2021 23:46 8,6 C 7,8 C 5,6 C 72 % 1027,8 hPa 0,0 l/m 0 min 0 min 0 W/m 9,7 km/h (2 Bft) 100,00 %
23.04.2021 23:48 8,6 C 7,8 C 5,0 C 73 % 1027,8 hPa 0,0 l/m 0 min 0 min 0 W/m 9,7 km/h (2 Bft) 100,00 %
23.04.2021 23:50 8,6 C 7,8 C 5,6 C 73 % 1027,8 hPa 0,0 l/m 0 min 0 min 0 W/m 3,2 km/h (1 Bft) 100,00 %
23.04.2021 23:52 8,6 C 7,8 C 5,0 C 73 % 1027,8 hPa 0,0 l/m 0 min 0 min 0 W/m 3,2 km/h (1 Bft) 100,00 %
23.04.2021 23:54 8,6 C 7,2 C 5,0 C 72 % 1027,8 hPa 0,0 l/m 0 min 0 min 0 W/m 3,2 km/h (1 Bft) 97,87 %
23.04.2021 23:56 8,6 C 7,2 C 5,0 C 73 % 1027,8 hPa 0,0 l/m 0 min 0 min 0 W/m 6,4 km/h (2 Bft) 100,00 %
23.04.2021 23:58 8,5 C 7,2 C 5,0 C 73 % 1027,8 hPa 0,0 l/m 0 min 0 min 0 W/m 3,2 km/h (1 Bft) 100,00 %
_ Min-Zeit 06:48 05:44 06:10 14:46 19:34 - - - - 01:40 06:36
Minimum _ 1,3 C 0,6 C -1,1 C 49 % 1027,5 hPa - - - - 0,0 km/h (0 Bft) 23,08 %
_ Max-Zeit 17:12 16:52 12:52 08:32 09:22 00:00 14:07 00:00 13:26 09:04 00:00
Maximum _ 16,1 C 24,4 C 21,7 C 94 % 1030,5 hPa 0,0 l/m 5 min 0 min 887 W/m 22,5 km/h
NW (4 Bft)
100,00 %
Durchschnitt _ 8,9 C 10,5 C 6,9 C 70 % 1028,8 hPa #0,0 l/m #9:56 h #0 min. 468 W/m 8,1 km/h (2 Bft) 97,35 %
© 2021 W. Hausmann